Observation data for Sterling City on 11/14/2019      Previous  Date  Next       Current Mesonet Observations  Soil Data  Daily Summary Page  Observations in Plain Language
KSC1 140600Z 12002KT M01/M01 A3007 RMK A01 T10081008  RH  100%=      5-min Rain = 0
KSC1 140601Z 12002KT M01/M01 A3007 RMK A01 T10081008  RH  100%=      5-min Rain = 0
KSC1 140602Z 12002KT M01/M01 A3007 RMK A01 T10091009  RH  100%=      5-min Rain = 0
KSC1 140603Z 12002KT M01/M01 A3007 RMK A01 T10111011  RH  100%=      5-min Rain = 0
KSC1 140604Z 12002KT M01/M01 A3007 RMK A01 T10121012  RH  100%=      5-min Rain = 0
KSC1 140605Z 12002KT M01/M01 A3007 RMK A01 T10131013  RH  100%=      5-min Rain = 0
KSC1 140606Z 12002KT M01/M01 A3007 RMK A01 T10141014  RH  100%=      5-min Rain = 0
KSC1 140607Z 12002KT M01/M01 A3007 RMK A01 T10141014  RH  100%=      5-min Rain = 0
KSC1 140608Z 13002KT M01/M01 A3007 RMK A01 T10141014  RH  100%=      5-min Rain = 0
KSC1 140609Z 13003KT M01/M01 A3007 RMK A01 T10141014  RH  100%=      5-min Rain = 0
KSC1 140610Z 13003KT M01/M01 A3007 RMK A01 T10141014  RH  100%=      5-min Rain = 0
KSC1 140611Z 14004KT M01/M01 A3007 RMK A01 T10131013  RH  100%=      5-min Rain = 0
KSC1 140612Z 14004KT M01/M01 A3008 RMK A01 T10131013  RH  100%=      5-min Rain = 0
KSC1 140613Z 14004KT M01/M01 A3008 RMK A01 T10131013  RH  100%=      5-min Rain = 0
KSC1 140614Z 14004KT M01/M01 A3008 RMK A01 T10131013  RH  100%=      5-min Rain = 0
KSC1 140615Z 14004KT M01/M01 A3008 RMK A01 T10131013  RH  100%=      5-min Rain = 0
KSC1 140616Z 14004KT M01/M01 A3008 RMK A01 T10131013  RH  100%=      5-min Rain = 0
KSC1 140617Z 14005KT M01/M01 A3008 RMK A01 T10121013  RH  100%=      5-min Rain = 0
KSC1 140618Z 15005KT M01/M01 A3008 RMK A01 T10121012  RH  100%=      5-min Rain = 0
KSC1 140619Z 15005KT M01/M01 A3008 RMK A01 T10111011  RH  100%=      5-min Rain = 0
KSC1 140620Z 15005KT M01/M01 A3008 RMK A01 T10101010  RH  100%=      5-min Rain = 0
KSC1 140621Z 15005KT M01/M01 A3008 RMK A01 T10091010  RH  100%=      5-min Rain = 0
KSC1 140622Z 15005KT M01/M01 A3008 RMK A01 T10081008  RH  100%=      5-min Rain = 0
KSC1 140623Z 15005KT M01/M01 A3008 RMK A01 T10071007  RH  100%=      5-min Rain = 0
KSC1 140624Z 15005KT M01/M01 A3008 RMK A01 T10061006  RH  100%=      5-min Rain = 0
KSC1 140625Z 15004KT M01/M01 A3008 RMK A01 T10061006  RH  100%=      5-min Rain = 0
KSC1 140626Z 15004KT M01/M01 A3008 RMK A01 T10051005  RH  100%=      5-min Rain = 0
KSC1 140627Z 14004KT M00/M00 A3008 RMK A01 T10021002  RH  100%=      5-min Rain = 0
KSC1 140628Z 14004KT 00/00 A3008 RMK A01 T00020002  RH  100%=      5-min Rain = 0
KSC1 140629Z 14003KT 01/01 A3008 RMK A01 T00060006  RH  100%=      5-min Rain = 0
KSC1 140630Z 14003KT 01/01 A3008 RMK A01 T00090008  RH  100%=      5-min Rain = 0
KSC1 140631Z 14003KT 01/01 A3008 RMK A01 T00100010  RH  100%=      5-min Rain = 0
KSC1 140632Z 14002KT 01/01 A3008 RMK A01 T00120012  RH  100%=      5-min Rain = 0
KSC1 140633Z 14002KT 01/01 A3008 RMK A01 T00130013  RH  100%=      5-min Rain = 0
KSC1 140634Z 14002KT 01/01 A3008 RMK A01 T00130013  RH  100%=      5-min Rain = 0
KSC1 140635Z 14002KT 01/01 A3008 RMK A01 T00080008  RH  100%=      5-min Rain = 0
KSC1 140636Z 14001KT 00/00 A3008 RMK A01 T00030003  RH  100%=      5-min Rain = 0
KSC1 140637Z 14000KT 00/00 A3008 RMK A01 T00010001  RH  100%=      5-min Rain = 0
KSC1 140638Z 14000KT 00/00 A3008 RMK A01 T00-000-0  RH  100%=      5-min Rain = 0
KSC1 140639Z 00000KT M00/M00 A3008 RMK A01 T10011002  RH  100%=      5-min Rain = 0
KSC1 140640Z 14001KT 00/00 A3008 RMK A01 T000000-0  RH  100%=      5-min Rain = 0
KSC1 140641Z 14002KT 01/01 A3008 RMK A01 T00050005  RH  100%=      5-min Rain = 0
KSC1 140642Z 12000KT 01/01 A3008 RMK A01 T00090009  RH  100%=      5-min Rain = 0
KSC1 140643Z 00000KT 01/01 A3008 RMK A01 T00110011  RH  100%=      5-min Rain = 0
KSC1 140644Z 00000KT 01/01 A3008 RMK A01 T00060006  RH  100%=      5-min Rain = 0
KSC1 140645Z 00000KT 00/00 A3008 RMK A01 T00030003  RH  100%=      5-min Rain = 0
KSC1 140646Z 00000KT 00/00 A3008 RMK A01 T00020001  RH  100%=      5-min Rain = 0
KSC1 140647Z 00000KT 00/00 A3008 RMK A01 T00000000  RH  100%=      5-min Rain = 0
KSC1 140648Z 12001KT M00/M00 A3008 RMK A01 T10011001  RH  100%=      5-min Rain = 0
KSC1 140649Z 12001KT M00/M00 A3008 RMK A01 T10031004  RH  100%=      5-min Rain = 0
KSC1 140650Z 12001KT M00/M01 A3008 RMK A01 T10041005  RH  100%=      5-min Rain = 0
KSC1 140651Z 11001KT M00/M00 A3008 RMK A01 T10031003  RH  100%=      5-min Rain = 0
KSC1 140652Z 11000KT M00/M00 A3008 RMK A01 T10011001  RH  100%=      5-min Rain = 0
KSC1 140653Z 11000KT 00/00 A3008 RMK A01 T00-000-1  RH  100%=      5-min Rain = 0
KSC1 140654Z 36002KT M00/M00 A3008 RMK A01 T10011001  RH  100%=      5-min Rain = 0
KSC1 140655Z 35002KT M00/M00 A3008 RMK A01 T10031003  RH  100%=      5-min Rain = 0
KSC1 140656Z 35002KT M01/M01 A3008 RMK A01 T10061006  RH  100%=      5-min Rain = 0
KSC1 140657Z 34002KT M01/M01 A3008 RMK A01 T10071007  RH  100%=      5-min Rain = 0
KSC1 140658Z 34003KT M01/M01 A3008 RMK A01 T10071007  RH  100%=      5-min Rain = 0
KSC1 140659Z 34003KT M00/M00 A3008 RMK A01 T10041004  RH  100%=      5-min Rain = 0
KSC1 140700Z 33003KT M00/M00 A3008 RMK A01 T10021002  RH  100%=      5-min Rain = 0
KSC1 140701Z 33002KT M00/M00 A3008 RMK A01 T10031003  RH  100%=      5-min Rain = 0
KSC1 140702Z 33001KT M01/M01 A3008 RMK A01 T10061006  RH  100%=      5-min Rain = 0
KSC1 140703Z 33001KT M01/M01 A3008 RMK A01 T10091009  RH  100%=      5-min Rain = 0
KSC1 140704Z 33001KT M01/M01 A3008 RMK A01 T10111011  RH  100%=      5-min Rain = 0
KSC1 140705Z 32000KT M01/M01 A3008 RMK A01 T10111011  RH  100%=      5-min Rain = 0
KSC1 140706Z 32002KT M01/M01 A3008 RMK A01 T10091009  RH  100%=      5-min Rain = 0
KSC1 140707Z 32002KT M01/M01 A3008 RMK A01 T10081008  RH  100%=      5-min Rain = 0
KSC1 140708Z 32001KT M01/M01 A3008 RMK A01 T10071007  RH  100%=      5-min Rain = 0
KSC1 140709Z 32001KT M01/M01 A3008 RMK A01 T10081009  RH  100%=      5-min Rain = 0
KSC1 140710Z 32000KT M01/M01 A3008 RMK A01 T10111011  RH  100%=      5-min Rain = 0
KSC1 140711Z 32000KT M01/M01 A3008 RMK A01 T10111012  RH  100%=      5-min Rain = 0
KSC1 140712Z 32000KT M01/M01 A3008 RMK A01 T10131013  RH  100%=      5-min Rain = 0
KSC1 140713Z 32000KT M01/M01 A3008 RMK A01 T10141014  RH  100%=      5-min Rain = 0
KSC1 140714Z 00000KT M02/M02 A3008 RMK A01 T10151015  RH  100%=      5-min Rain = 0
KSC1 140715Z 00000KT M02/M02 A3008 RMK A01 T10151015  RH  100%=      5-min Rain = 0
KSC1 140716Z 00000KT M01/M01 A3008 RMK A01 T10141014  RH  100%=      5-min Rain = 0
KSC1 140717Z 32000KT M01/M01 A3008 RMK A01 T10131013  RH  100%=      5-min Rain = 0
KSC1 140718Z 32001KT M01/M01 A3008 RMK A01 T10121012  RH  100%=      5-min Rain = 0
KSC1 140719Z 31002KT M01/M01 A3008 RMK A01 T10121012  RH  100%=      5-min Rain = 0
KSC1 140720Z 30003KT M01/M01 A3008 RMK A01 T10131013  RH  100%=      5-min Rain = 0
KSC1 140721Z 30003KT M01/M01 A3008 RMK A01 T10131013  RH  100%=      5-min Rain = 0
KSC1 140722Z 30003KT M01/M01 A3008 RMK A01 T10111011  RH  100%=      5-min Rain = 0
KSC1 140723Z 30003KT M01/M01 A3008 RMK A01 T10101010  RH  100%=      5-min Rain = 0
KSC1 140724Z 29003KT M01/M01 A3008 RMK A01 T10111011  RH  100%=      5-min Rain = 0
KSC1 140725Z 29003KT M01/M01 A3008 RMK A01 T10121012  RH  100%=      5-min Rain = 0
KSC1 140726Z 29003KT M01/M01 A3008 RMK A01 T10141014  RH  100%=      5-min Rain = 0
KSC1 140727Z 29003KT M02/M02 A3008 RMK A01 T10151015  RH  100%=      5-min Rain = 0
KSC1 140728Z 30004KT M02/M02 A3008 RMK A01 T10151016  RH  100%=      5-min Rain = 0
KSC1 140729Z 30004KT M02/M02 A3008 RMK A01 T10151015  RH  100%=      5-min Rain = 0
KSC1 140730Z 30004KT M02/M02 A3008 RMK A01 T10161016  RH  100%=      5-min Rain = 0
KSC1 140731Z 30004KT M02/M02 A3008 RMK A01 T10151015  RH  100%=      5-min Rain = 0
KSC1 140732Z 30004KT M02/M02 A3008 RMK A01 T10151015  RH  100%=      5-min Rain = 0
KSC1 140733Z 30003KT M01/M02 A3008 RMK A01 T10141015  RH  100%=      5-min Rain = 0
KSC1 140734Z 29003KT M01/M01 A3008 RMK A01 T10141014  RH  100%=      5-min Rain = 0
KSC1 140735Z 29002KT M01/M01 A3009 RMK A01 T10131013  RH  100%=      5-min Rain = 0
KSC1 140736Z 27002KT M01/M01 A3009 RMK A01 T10131013  RH  100%=      5-min Rain = 0
KSC1 140737Z 26002KT M01/M01 A3009 RMK A01 T10131013  RH  100%=      5-min Rain = 0
KSC1 140738Z 26002KT M01/M01 A3009 RMK A01 T10131014  RH  100%=      5-min Rain = 0
KSC1 140739Z 26002KT M01/M02 A3009 RMK A01 T10141015  RH  100%=      5-min Rain = 0
KSC1 140740Z 25002KT M02/M02 A3009 RMK A01 T10161016  RH  100%=      5-min Rain = 0
KSC1 140741Z 25002KT M02/M02 A3009 RMK A01 T10161017  RH  100%=      5-min Rain = 0
KSC1 140742Z 25002KT M02/M02 A3009 RMK A01 T10171017  RH  100%=      5-min Rain = 0
KSC1 140743Z 25002KT M02/M02 A3009 RMK A01 T10171017  RH  100%=      5-min Rain = 0
KSC1 140744Z 25002KT M02/M02 A3009 RMK A01 T10171017  RH  100%=      5-min Rain = 0
KSC1 140745Z 25003KT M02/M02 A3009 RMK A01 T10161016  RH  100%=      5-min Rain = 0
KSC1 140746Z 25003KT M02/M02 A3009 RMK A01 T10151015  RH  100%=      5-min Rain = 0
KSC1 140747Z 25003KT M02/M02 A3009 RMK A01 T10151015  RH  100%=      5-min Rain = 0
KSC1 140748Z 25003KT M02/M02 A3009 RMK A01 T10151015  RH  100%=      5-min Rain = 0
KSC1 140749Z 25003KT M02/M02 A3009 RMK A01 T10161017  RH  100%=      5-min Rain = 0
KSC1 140750Z 26003KT M02/M02 A3009 RMK A01 T10161016  RH  100%=      5-min Rain = 0
KSC1 140751Z 26003KT M02/M02 A3009 RMK A01 T10161016  RH  100%=      5-min Rain = 0
KSC1 140752Z 26003KT M02/M02 A3009 RMK A01 T10151016  RH  100%=      5-min Rain = 0
KSC1 140753Z 26003KT M02/M02 A3009 RMK A01 T10161016  RH  100%=      5-min Rain = 0
KSC1 140754Z 25003KT M02/M02 A3009 RMK A01 T10161016  RH  100%=      5-min Rain = 0
KSC1 140755Z 25003KT M02/M02 A3009 RMK A01 T10151015  RH  100%=      5-min Rain = 0
KSC1 140756Z 25002KT M02/M02 A301 RMK A01 T10151015  RH  100%=      5-min Rain = 0
KSC1 140757Z 25003KT M02/M02 A301 RMK A01 T10161016  RH  100%=      5-min Rain = 0
KSC1 140758Z 26003KT M02/M02 A301 RMK A01 T10161017  RH  100%=      5-min Rain = 0
KSC1 140759Z 26002KT M02/M02 A301 RMK A01 T10161016  RH  100%=      5-min Rain = 0
KSC1 140800Z 27003KT M02/M02 A301 RMK A01 T10151015  RH  100%=      5-min Rain = 0
KSC1 140801Z 26002KT M01/M01 A3009 RMK A01 T10131013  RH  100%=      5-min Rain = 0
KSC1 140802Z 27002KT M01/M01 A301 RMK A01 T10131013  RH  100%=      5-min Rain = 0
KSC1 140803Z 29002KT M01/M01 A301 RMK A01 T10131013  RH  100%=      5-min Rain = 0
KSC1 140804Z 28002KT M01/M01 A301 RMK A01 T10131013  RH  100%=      5-min Rain = 0
KSC1 140805Z 28002KT M01/M01 A301 RMK A01 T10131013  RH  100%=      5-min Rain = 0
KSC1 140806Z 28003KT M01/M01 A301 RMK A01 T10131013  RH  100%=      5-min Rain = 0
KSC1 140807Z 29003KT M01/M01 A301 RMK A01 T10131014  RH  100%=      5-min Rain = 0
KSC1 140808Z 30003KT M01/M01 A301 RMK A01 T10141014  RH  100%=      5-min Rain = 0
KSC1 140809Z 30003KT M01/M02 A301 RMK A01 T10141015  RH  100%=      5-min Rain = 0
KSC1 140810Z 30003KT M01/M01 A301 RMK A01 T10141014  RH  100%=      5-min Rain = 0
KSC1 140811Z 31003KT M01/M01 A301 RMK A01 T10141014  RH  100%=      5-min Rain = 0
KSC1 140812Z 31003KT M01/M01 A301 RMK A01 T10131013  RH  100%=      5-min Rain = 0
KSC1 140813Z 30002KT M01/M01 A301 RMK A01 T10121012  RH  100%=      5-min Rain = 0
KSC1 140814Z 29001KT M01/M01 A301 RMK A01 T10121012  RH  100%=      5-min Rain = 0
KSC1 140815Z 29000KT M01/M01 A301 RMK A01 T10111011  RH  100%=      5-min Rain = 0
KSC1 140816Z 00000KT M01/M01 A3011 RMK A01 T10101010  RH  100%=      5-min Rain = 0
KSC1 140817Z 00000KT M01/M01 A3011 RMK A01 T10101010  RH  100%=      5-min Rain = 0
KSC1 140818Z 00000KT M01/M01 A3011 RMK A01 T10111011  RH  100%=      5-min Rain = 0
KSC1 140819Z 20001KT M01/M01 A3011 RMK A01 T10121012  RH  100%=      5-min Rain = 0
KSC1 140820Z 19002KT M01/M01 A3011 RMK A01 T10131013  RH  100%=      5-min Rain = 0
KSC1 140821Z 17002KT M02/M02 A3011 RMK A01 T10151015  RH  100%=      5-min Rain = 0
KSC1 140822Z 17003KT M02/M02 A3011 RMK A01 T10171017  RH  100%=      5-min Rain = 0
KSC1 140823Z 17003KT M02/M02 A3012 RMK A01 T10181018  RH  100%=      5-min Rain = 0
KSC1 140824Z 17003KT M02/M02 A3012 RMK A01 T10151015  RH  100%=      5-min Rain = 0
KSC1 140825Z 17004KT M01/M01 A3012 RMK A01 T10121012  RH  100%=      5-min Rain = 0
KSC1 140826Z 16004KT M01/M01 A3012 RMK A01 T10111011  RH  100%=      5-min Rain = 0
KSC1 140827Z 16003KT M01/M01 A3012 RMK A01 T10111011  RH  100%=      5-min Rain = 0
KSC1 140828Z 16003KT M01/M01 A3012 RMK A01 T10101010  RH  100%=      5-min Rain = 0
KSC1 140829Z 16003KT M01/M01 A3012 RMK A01 T10101011  RH  100%=      5-min Rain = 0
KSC1 140830Z 16003KT M01/M01 A3012 RMK A01 T10111011  RH  100%=      5-min Rain = 0
KSC1 140831Z 16003KT M01/M01 A3012 RMK A01 T10121012  RH  100%=      5-min Rain = 0
KSC1 140832Z 16003KT M01/M01 A3012 RMK A01 T10121012  RH  100%=      5-min Rain = 0
KSC1 140833Z 16003KT M01/M01 A3012 RMK A01 T10121013  RH  100%=      5-min Rain = 0
KSC1 140834Z 16003KT M01/M01 A3012 RMK A01 T10131013  RH  100%=      5-min Rain = 0
KSC1 140835Z 16003KT M01/M01 A3012 RMK A01 T10131013  RH  100%=      5-min Rain = 0
KSC1 140836Z 16003KT M01/M01 A3012 RMK A01 T10131014  RH  100%=      5-min Rain = 0
KSC1 140837Z 16003KT M01/M01 A3012 RMK A01 T10131013  RH  100%=      5-min Rain = 0
KSC1 140838Z 16002KT M01/M01 A3012 RMK A01 T10131013  RH  100%=      5-min Rain = 0
KSC1 140839Z 16002KT M01/M01 A3012 RMK A01 T10121012  RH  100%=      5-min Rain = 0
KSC1 140840Z 16001KT M01/M01 A3012 RMK A01 T10111011  RH  100%=      5-min Rain = 0
KSC1 140841Z 16001KT M01/M01 A3012 RMK A01 T10101011  RH  100%=      5-min Rain = 0
KSC1 140842Z 00000KT M01/M01 A3012 RMK A01 T10101010  RH  100%=      5-min Rain = 0
KSC1 140843Z 00000KT M01/M01 A3012 RMK A01 T10091009  RH  100%=      5-min Rain = 0
KSC1 140844Z 00000KT M01/M01 A3012 RMK A01 T10101010  RH  100%=      5-min Rain = 0
KSC1 140845Z 17000KT M01/M01 A3012 RMK A01 T10101010  RH  100%=      5-min Rain = 0
KSC1 140846Z 21000KT M01/M01 A3012 RMK A01 T10101010  RH  100%=      5-min Rain = 0
KSC1 140847Z 29002KT M01/M01 A3012 RMK A01 T10121012  RH  100%=      5-min Rain = 0
KSC1 140848Z 29002KT M01/M01 A3012 RMK A01 T10131013  RH  100%=      5-min Rain = 0
KSC1 140849Z 29002KT M01/M01 A3012 RMK A01 T10121013  RH  100%=      5-min Rain = 0
KSC1 140850Z 29002KT M01/M01 A3012 RMK A01 T10131013  RH  100%=      5-min Rain = 0
KSC1 140851Z 29002KT M02/M02 A3012 RMK A01 T10151015  RH  100%=      5-min Rain = 0
KSC1 140852Z 29001KT M02/M02 A3012 RMK A01 T10171017  RH  100%=      5-min Rain = 0
KSC1 140853Z 29001KT M02/M02 A3012 RMK A01 T10191019  RH  100%=      5-min Rain = 0
KSC1 140854Z 29001KT M02/M02 A3012 RMK A01 T10201020  RH  100%=      5-min Rain = 0
KSC1 140855Z 29001KT M02/M02 A3012 RMK A01 T10211021  RH  100%=      5-min Rain = 0
KSC1 140856Z 29000KT M02/M02 A3012 RMK A01 T10201020  RH  100%=      5-min Rain = 0
KSC1 140857Z 29001KT M02/M02 A3012 RMK A01 T10191020  RH  100%=      5-min Rain = 0
KSC1 140858Z 23002KT M02/M02 A3012 RMK A01 T10201020  RH  100%=      5-min Rain = 0
KSC1 140859Z 23002KT M02/M02 A3012 RMK A01 T10201020  RH  100%=      5-min Rain = 0
KSC1 140900Z 23002KT M02/M02 A3012 RMK A01 T10201020  RH  100%=      5-min Rain = 0
KSC1 140901Z 23002KT M02/M02 A3012 RMK A01 T10201020  RH  100%=      5-min Rain = 0
KSC1 140902Z 23002KT M02/M02 A3012 RMK A01 T10211021  RH  100%=      5-min Rain = 0
KSC1 140903Z 22003KT M02/M02 A3012 RMK A01 T10221022  RH  100%=      5-min Rain = 0
KSC1 140904Z 22003KT M02/M02 A3012 RMK A01 T10221022  RH  100%=      5-min Rain = 0
KSC1 140905Z 24002KT M02/M02 A3012 RMK A01 T10221023  RH  100%=      5-min Rain = 0
KSC1 140906Z 27002KT M02/M02 A3012 RMK A01 T10241024  RH  100%=      5-min Rain = 0
KSC1 140907Z 28003KT M02/M03 A3012 RMK A01 T10241025  RH  100%=      5-min Rain = 0
KSC1 140908Z 28003KT M02/M02 A3012 RMK A01 T10231023  RH  100%=      5-min Rain = 0
KSC1 140909Z 27003KT M02/M02 A3012 RMK A01 T10231023  RH  100%=      5-min Rain = 0
KSC1 140910Z 27003KT M02/M02 A3012 RMK A01 T10231023  RH  100%=      5-min Rain = 0
KSC1 140911Z 27003KT M02/M02 A3012 RMK A01 T10231023  RH  100%=      5-min Rain = 0
KSC1 140912Z 27003KT M02/M02 A3012 RMK A01 T10221023  RH  100%=      5-min Rain = 0
KSC1 140913Z 27003KT M02/M02 A3012 RMK A01 T10221022  RH  100%=      5-min Rain = 0
KSC1 140914Z 27002KT M02/M02 A3012 RMK A01 T10221022  RH  100%=      5-min Rain = 0
KSC1 140915Z 25003KT M02/M02 A3012 RMK A01 T10221022  RH  100%=      5-min Rain = 0
KSC1 140916Z 23003KT M02/M02 A3012 RMK A01 T10231023  RH  100%=      5-min Rain = 0
KSC1 140917Z 21004KT M02/M02 A3012 RMK A01 T10231023  RH  100%=      5-min Rain = 0
KSC1 140918Z 20004KT M02/M02 A3013 RMK A01 T10241024  RH  100%=      5-min Rain = 0
KSC1 140919Z 20004KT M02/M03 A3013 RMK A01 T10241025  RH  100%=      5-min Rain = 0
KSC1 140920Z 19004KT M02/M02 A3013 RMK A01 T10231024  RH  100%=      5-min Rain = 0
KSC1 140921Z 19004KT M02/M02 A3013 RMK A01 T10231023  RH  100%=      5-min Rain = 0
KSC1 140922Z 19003KT M02/M02 A3013 RMK A01 T10221022  RH  100%=      5-min Rain = 0
KSC1 140923Z 19002KT M02/M02 A3013 RMK A01 T10221022  RH  100%=      5-min Rain = 0
KSC1 140924Z 20002KT M02/M02 A3012 RMK A01 T10221022  RH  100%=      5-min Rain = 0
KSC1 140925Z 21001KT M02/M02 A3012 RMK A01 T10211022  RH  100%=      5-min Rain = 0
KSC1 140926Z 21000KT M02/M02 A3012 RMK A01 T10201020  RH  100%=      5-min Rain = 0
KSC1 140927Z 21000KT M02/M02 A3012 RMK A01 T10191020  RH  100%=      5-min Rain = 0
KSC1 140928Z 23002KT M02/M02 A3012 RMK A01 T10201020  RH  100%=      5-min Rain = 0
KSC1 140929Z 24002KT M02/M02 A3012 RMK A01 T10201020  RH  100%=      5-min Rain = 0
KSC1 140930Z 24001KT M02/M02 A3012 RMK A01 T10201020  RH  100%=      5-min Rain = 0
KSC1 140931Z 24001KT M02/M02 A3012 RMK A01 T10221022  RH  100%=      5-min Rain = 0
KSC1 140932Z 24001KT M02/M02 A3012 RMK A01 T10241024  RH  100%=      5-min Rain = 0
KSC1 140933Z 24001KT M03/M03 A3012 RMK A01 T10251025  RH  100%=      5-min Rain = 0
KSC1 140934Z 24001KT M03/M03 A3012 RMK A01 T10251026  RH  100%=      5-min Rain = 0
KSC1 140935Z 24001KT M03/M03 A3013 RMK A01 T10261026  RH  100%=      5-min Rain = 0
KSC1 140936Z 24000KT M03/M03 A3013 RMK A01 T10261026  RH  100%=      5-min Rain = 0
KSC1 140937Z 18000KT M03/M03 A3013 RMK A01 T10261026  RH  100%=      5-min Rain = 0
KSC1 140938Z 15001KT M03/M03 A3013 RMK A01 T10261026  RH  100%=      5-min Rain = 0
KSC1 140939Z 14003KT M03/M03 A3013 RMK A01 T10261027  RH  100%=      5-min Rain = 0
KSC1 140940Z 14002KT M03/M03 A3013 RMK A01 T10271027  RH  100%=      5-min Rain = 0
KSC1 140941Z 14002KT M03/M03 A3013 RMK A01 T10281029  RH  100%=      5-min Rain = 0
KSC1 140942Z 14002KT M03/M03 A3013 RMK A01 T10291029  RH  100%=      5-min Rain = 0
KSC1 140943Z 14002KT M03/M03 A3013 RMK A01 T10271028  RH  100%=      5-min Rain = 0
KSC1 140944Z 14001KT M03/M03 A3013 RMK A01 T10271027  RH  100%=      5-min Rain = 0
KSC1 140945Z 14001KT M03/M03 A3013 RMK A01 T10271027  RH  100%=      5-min Rain = 0
KSC1 140946Z 14001KT M03/M03 A3013 RMK A01 T10261026  RH  100%=      5-min Rain = 0
KSC1 140947Z 14001KT M02/M03 A3013 RMK A01 T10241025  RH  100%=      5-min Rain = 0
KSC1 140948Z 14001KT M02/M03 A3014 RMK A01 T10241025  RH  100%=      5-min Rain = 0
KSC1 140949Z 14001KT M03/M03 A3014 RMK A01 T10251025  RH  100%=      5-min Rain = 0
KSC1 140950Z 14001KT M03/M03 A3014 RMK A01 T10251025  RH  100%=      5-min Rain = 0
KSC1 140951Z 14001KT M03/M03 A3014 RMK A01 T10261026  RH  100%=      5-min Rain = 0
KSC1 140952Z 14001KT M03/M03 A3014 RMK A01 T10271027  RH  100%=      5-min Rain = 0
KSC1 140953Z 14000KT M03/M03 A3014 RMK A01 T10281028  RH  100%=      5-min Rain = 0
KSC1 140954Z 00000KT M03/M03 A3014 RMK A01 T10291029  RH  100%=      5-min Rain = 0
KSC1 140955Z 00000KT M03/M03 A3014 RMK A01 T10291029  RH  100%=      5-min Rain = 0
KSC1 140956Z 00000KT M03/M03 A3014 RMK A01 T10291029  RH  100%=      5-min Rain = 0
KSC1 140957Z 00000KT M03/M03 A3014 RMK A01 T10291029  RH  100%=      5-min Rain = 0
KSC1 140958Z 00000KT M03/M03 A3014 RMK A01 T10301030  RH  100%=      5-min Rain = 0
KSC1 140959Z 14000KT M03/M03 A3014 RMK A01 T10301030  RH  100%=      5-min Rain = 0
KSC1 141000Z 14001KT M03/M03 A3014 RMK A01 T10271028  RH  100%=      5-min Rain = 0
KSC1 141001Z 30002KT M03/M03 A3014 RMK A01 T10251025  RH  100%=      5-min Rain = 0
KSC1 141002Z 31003KT M02/M03 A3014 RMK A01 T10241025  RH  100%=      5-min Rain = 0
KSC1 141003Z 31003KT M03/M03 A3014 RMK A01 T10261026  RH  100%=      5-min Rain = 0
KSC1 141004Z 31003KT M03/M03 A3014 RMK A01 T10261026  RH  100%=      5-min Rain = 0
KSC1 141005Z 31003KT M02/M02 A3014 RMK A01 T10241024  RH  100%=      5-min Rain = 0
KSC1 141006Z 30002KT M02/M02 A3014 RMK A01 T10241024  RH  100%=      5-min Rain = 0
KSC1 141007Z 30002KT M02/M02 A3014 RMK A01 T10241024  RH  100%=      5-min Rain = 0
KSC1 141008Z 31002KT M03/M03 A3014 RMK A01 T10251025  RH  100%=      5-min Rain = 0
KSC1 141009Z 31002KT M03/M03 A3014 RMK A01 T10261027  RH  100%=      5-min Rain = 0
KSC1 141010Z 30002KT M03/M03 A3014 RMK A01 T10271028  RH  100%=      5-min Rain = 0
KSC1 141011Z 30002KT M03/M03 A3014 RMK A01 T10291029  RH  100%=      5-min Rain = 0
KSC1 141012Z 30001KT M03/M03 A3014 RMK A01 T10291030  RH  100%=      5-min Rain = 0
KSC1 141013Z 30001KT M03/M03 A3014 RMK A01 T10301030  RH  100%=      5-min Rain = 0
KSC1 141014Z 30001KT M03/M03 A3014 RMK A01 T10301031  RH  100%=      5-min Rain = 0
KSC1 141015Z 31002KT M03/M03 A3014 RMK A01 T10311031  RH  100%=      5-min Rain = 0
KSC1 141016Z 30001KT M03/M03 A3014 RMK A01 T10301031  RH  100%=      5-min Rain = 0
KSC1 141017Z 30002KT M03/M03 A3014 RMK A01 T10301031  RH  100%=      5-min Rain = 0
KSC1 141018Z 30002KT M03/M03 A3014 RMK A01 T10301030  RH  100%=      5-min Rain = 0
KSC1 141019Z 30002KT M03/M03 A3014 RMK A01 T10301030  RH  100%=      5-min Rain = 0
KSC1 141020Z 30002KT M03/M03 A3014 RMK A01 T10311031  RH  100%=      5-min Rain = 0
KSC1 141021Z 30002KT M03/M03 A3014 RMK A01 T10311031  RH  100%=      5-min Rain = 0
KSC1 141022Z 30002KT M03/M03 A3014 RMK A01 T10291030  RH  100%=      5-min Rain = 0
KSC1 141023Z 30003KT M03/M03 A3014 RMK A01 T10291029  RH  100%=      5-min Rain = 0
KSC1 141024Z 30003KT M03/M03 A3014 RMK A01 T10291029  RH  100%=      5-min Rain = 0
KSC1 141025Z 30003KT M03/M03 A3014 RMK A01 T10281028  RH  100%=      5-min Rain = 0
KSC1 141026Z 30002KT M03/M03 A3014 RMK A01 T10271027  RH  100%=      5-min Rain = 0
KSC1 141027Z 30003KT M03/M03 A3014 RMK A01 T10271027  RH  100%=      5-min Rain = 0
KSC1 141028Z 30003KT M03/M03 A3014 RMK A01 T10271027  RH  100%=      5-min Rain = 0
KSC1 141029Z 31003KT M03/M03 A3014 RMK A01 T10271027  RH  100%=      5-min Rain = 0
KSC1 141030Z 31003KT M03/M03 A3015 RMK A01 T10261026  RH  100%=      5-min Rain = 0
KSC1 141031Z 31003KT M03/M03 A3015 RMK A01 T10251025  RH  100%=      5-min Rain = 0
KSC1 141032Z 31003KT M03/M03 A3015 RMK A01 T10251025  RH  100%=      5-min Rain = 0
KSC1 141033Z 31001KT M03/M03 A3015 RMK A01 T10251025  RH  100%=      5-min Rain = 0
KSC1 141034Z 31000KT M03/M03 A3015 RMK A01 T10281028  RH  100%=      5-min Rain = 0
KSC1 141035Z 00000KT M03/M03 A3015 RMK A01 T10301030  RH  100%=      5-min Rain = 0
KSC1 141036Z 21001KT M03/M03 A3015 RMK A01 T10301031  RH  100%=      5-min Rain = 0
KSC1 141037Z 20002KT M03/M03 A3015 RMK A01 T10301030  RH  100%=      5-min Rain = 0
KSC1 141038Z 18003KT M03/M03 A3015 RMK A01 T10301030  RH  100%=      5-min Rain = 0
KSC1 141039Z 18002KT M03/M03 A3015 RMK A01 T10301030  RH  100%=      5-min Rain = 0
KSC1 141040Z 18001KT M03/M03 A3015 RMK A01 T10291029  RH  100%=      5-min Rain = 0
KSC1 141041Z 19002KT M03/M03 A3015 RMK A01 T10281028  RH  100%=      5-min Rain = 0
KSC1 141042Z 20001KT M03/M03 A3015 RMK A01 T10251026  RH  100%=      5-min Rain = 0
KSC1 141043Z 20001KT M02/M02 A3015 RMK A01 T10231023  RH  100%=      5-min Rain = 0
KSC1 141044Z 20001KT M02/M02 A3015 RMK A01 T10231024  RH  100%=      5-min Rain = 0
KSC1 141045Z 20001KT M02/M02 A3015 RMK A01 T10241024  RH  100%=      5-min Rain = 0
KSC1 141046Z 20002KT M02/M02 A3015 RMK A01 T10241024  RH  100%=      5-min Rain = 0
KSC1 141047Z 20002KT M03/M03 A3016 RMK A01 T10251025  RH  100%=      5-min Rain = 0
KSC1 141048Z 20002KT M03/M03 A3016 RMK A01 T10251025  RH  100%=      5-min Rain = 0
KSC1 141049Z 20001KT M03/M03 A3016 RMK A01 T10261026  RH  100%=      5-min Rain = 0
KSC1 141050Z 20001KT M03/M03 A3016 RMK A01 T10281028  RH  100%=      5-min Rain = 0
KSC1 141051Z 20001KT M03/M03 A3016 RMK A01 T10301030  RH  100%=      5-min Rain = 0
KSC1 141052Z 20001KT M03/M03 A3016 RMK A01 T10321032  RH  100%=      5-min Rain = 0
KSC1 141053Z 20001KT M03/M03 A3016 RMK A01 T10321032  RH  100%=      5-min Rain = 0
KSC1 141054Z 20001KT M03/M03 A3016 RMK A01 T10331033  RH  100%=      5-min Rain = 0
KSC1 141055Z 20000KT M03/M03 A3016 RMK A01 T10321032  RH  100%=      5-min Rain = 0
KSC1 141056Z 00000KT M03/M03 A3016 RMK A01 T10311031  RH  100%=      5-min Rain = 0
KSC1 141057Z 00000KT M03/M03 A3016 RMK A01 T10311031  RH  100%=      5-min Rain = 0
KSC1 141058Z 28001KT M03/M03 A3016 RMK A01 T10291029  RH  100%=      5-min Rain = 0
KSC1 141059Z 28003KT M03/M03 A3016 RMK A01 T10271028  RH  100%=      5-min Rain = 0
KSC1 141100Z 28003KT M03/M03 A3016 RMK A01 T10261027  RH  100%=      5-min Rain = 0
KSC1 141101Z 28003KT M03/M03 A3016 RMK A01 T10251026  RH  100%=      5-min Rain = 0
KSC1 141102Z 28003KT M03/M03 A3016 RMK A01 T10251025  RH  100%=      5-min Rain = 0
KSC1 141103Z 28003KT M03/M03 A3016 RMK A01 T10261026  RH  100%=      5-min Rain = 0
KSC1 141104Z 29003KT M03/M03 A3016 RMK A01 T10261026  RH  100%=      5-min Rain = 0
KSC1 141105Z 30003KT M03/M03 A3016 RMK A01 T10271027  RH  100%=      5-min Rain = 0
KSC1 141106Z 30002KT M03/M03 A3016 RMK A01 T10281028  RH  100%=      5-min Rain = 0
KSC1 141107Z 30003KT M03/M03 A3016 RMK A01 T10291029  RH  100%=      5-min Rain = 0
KSC1 141108Z 30003KT M03/M03 A3016 RMK A01 T10291029  RH  100%=      5-min Rain = 0
KSC1 141109Z 30003KT M03/M03 A3016 RMK A01 T10271027  RH  100%=      5-min Rain = 0
KSC1 141110Z 30003KT M03/M03 A3016 RMK A01 T10251025  RH  100%=      5-min Rain = 0
KSC1 141111Z 30003KT M02/M02 A3016 RMK A01 T10241024  RH  100%=      5-min Rain = 0
KSC1 141112Z 30003KT M02/M02 A3016 RMK A01 T10241024  RH  100%=      5-min Rain = 0
KSC1 141113Z 30003KT M02/M02 A3016 RMK A01 T10241024  RH  100%=      5-min Rain = 0
KSC1 141114Z 30003KT M02/M02 A3016 RMK A01 T10241024  RH  100%=      5-min Rain = 0
KSC1 141115Z 30002KT M03/M03 A3016 RMK A01 T10271027  RH  100%=      5-min Rain = 0
KSC1 141116Z 30002KT M03/M03 A3016 RMK A01 T10301030  RH  100%=      5-min Rain = 0
KSC1 141117Z 31003KT M03/M03 A3016 RMK A01 T10321032  RH  100%=      5-min Rain = 0
KSC1 141118Z 31002KT M03/M03 A3016 RMK A01 T10311031  RH  100%=      5-min Rain = 0
KSC1 141119Z 30002KT M03/M03 A3016 RMK A01 T10301031  RH  100%=      5-min Rain = 0
KSC1 141120Z 29002KT M03/M03 A3016 RMK A01 T10301030  RH  100%=      5-min Rain = 0
KSC1 141121Z 28002KT M03/M03 A3017 RMK A01 T10311031  RH  100%=      5-min Rain = 0
KSC1 141122Z 28002KT M03/M03 A3017 RMK A01 T10321032  RH  100%=      5-min Rain = 0
KSC1 141123Z 28002KT M03/M03 A3016 RMK A01 T10331033  RH  100%=      5-min Rain = 0
KSC1 141124Z 28003KT M03/M03 A3016 RMK A01 T10341034  RH  100%=      5-min Rain = 0
KSC1 141125Z 28003KT M03/M03 A3016 RMK A01 T10331033  RH  100%=      5-min Rain = 0
KSC1 141126Z 29003KT M03/M03 A3016 RMK A01 T10331033  RH  100%=      5-min Rain = 0
KSC1 141127Z 29003KT M03/M03 A3016 RMK A01 T10331033  RH  100%=      5-min Rain = 0
KSC1 141128Z 29003KT M03/M03 A3016 RMK A01 T10331033  RH  100%=      5-min Rain = 0
KSC1 141129Z 29003KT M03/M03 A3017 RMK A01 T10331034  RH  100%=      5-min Rain = 0
KSC1 141130Z 29003KT M03/M03 A3017 RMK A01 T10341034  RH  100%=      5-min Rain = 0
KSC1 141131Z 29003KT M03/M04 A3017 RMK A01 T10341035  RH  100%=      5-min Rain = 0
KSC1 141132Z 30003KT M03/M03 A3017 RMK A01 T10341034  RH  100%=      5-min Rain = 0
KSC1 141133Z 30003KT M03/M03 A3017 RMK A01 T10341034  RH  100%=      5-min Rain = 0
KSC1 141134Z 30003KT M03/M03 A3017 RMK A01 T10331033  RH  100%=      5-min Rain = 0
KSC1 141135Z 30003KT M03/M03 A3017 RMK A01 T10321032  RH  100%=      5-min Rain = 0
KSC1 141136Z 30003KT M03/M03 A3017 RMK A01 T10321032  RH  100%=      5-min Rain = 0
KSC1 141137Z 30003KT M03/M03 A3017 RMK A01 T10311031  RH  100%=      5-min Rain = 0
KSC1 141138Z 30003KT M03/M03 A3017 RMK A01 T10311032  RH  100%=      5-min Rain = 0
KSC1 141139Z 30003KT M03/M03 A3017 RMK A01 T10311032  RH  100%=      5-min Rain = 0
KSC1 141140Z 30002KT M03/M03 A3017 RMK A01 T10321032  RH  100%=      5-min Rain = 0
KSC1 141141Z 30002KT M03/M03 A3017 RMK A01 T10331033  RH  100%=      5-min Rain = 0
KSC1 141142Z 30001KT M03/M03 A3017 RMK A01 T10331033  RH  100%=      5-min Rain = 0
KSC1 141143Z 29001KT M03/M03 A3017 RMK A01 T10331033  RH  100%=      5-min Rain = 0
KSC1 141144Z 29002KT M03/M03 A3017 RMK A01 T10321032  RH  100%=      5-min Rain = 0
KSC1 141145Z 29002KT M03/M03 A3017 RMK A01 T10311031  RH  100%=      5-min Rain = 0
KSC1 141146Z 28002KT M03/M03 A3017 RMK A01 T10311031  RH  100%=      5-min Rain = 0
KSC1 141147Z 28002KT M03/M03 A3018 RMK A01 T10301030  RH  100%=      5-min Rain = 0
KSC1 141148Z 28002KT M03/M03 A3018 RMK A01 T10301030  RH  100%=      5-min Rain = 0
KSC1 141149Z 28001KT M03/M03 A3018 RMK A01 T10301030  RH  100%=      5-min Rain = 0
KSC1 141150Z 28001KT M03/M03 A3018 RMK A01 T10301031  RH  100%=      5-min Rain = 0
KSC1 141151Z 28002KT M03/M03 A3018 RMK A01 T10301031  RH  100%=      5-min Rain = 0
KSC1 141152Z 28002KT M03/M03 A3018 RMK A01 T10301030  RH  100%=      5-min Rain = 0
KSC1 141153Z 29002KT M03/M03 A3018 RMK A01 T10301030  RH  100%=      5-min Rain = 0
KSC1 141154Z 30003KT M03/M03 A3018 RMK A01 T10301030  RH  100%=      5-min Rain = 0
KSC1 141155Z 30003KT M03/M03 A3018 RMK A01 T10311031  RH  100%=      5-min Rain = 0
KSC1 141156Z 31003KT M03/M03 A3018 RMK A01 T10321032  RH  100%=      5-min Rain = 0
KSC1 141157Z 31003KT M03/M03 A3018 RMK A01 T10311032  RH  100%=      5-min Rain = 0
KSC1 141158Z 31003KT M03/M03 A3018 RMK A01 T10311031  RH  100%=      5-min Rain = 0
KSC1 141159Z 31003KT M03/M03 A3018 RMK A01 T10311031  RH  100%=      5-min Rain = 0
KSC1 141200Z 31003KT M03/M03 A3018 RMK A01 T10301030  RH  100%=      5-min Rain = 0
KSC1 141201Z 31003KT M03/M03 A3018 RMK A01 T10301030  RH  100%=      5-min Rain = 0
KSC1 141202Z 31004KT M03/M03 A3018 RMK A01 T10291030  RH  100%=      5-min Rain = 0
KSC1 141203Z 31004KT M03/M03 A3018 RMK A01 T10291029  RH  100%=      5-min Rain = 0
KSC1 141204Z 31004KT M03/M03 A3018 RMK A01 T10291029  RH  100%=      5-min Rain = 0
KSC1 141205Z 32004KT M03/M03 A3018 RMK A01 T10291029  RH  100%=      5-min Rain = 0
KSC1 141206Z 32004KT M03/M03 A3018 RMK A01 T10291029  RH  100%=      5-min Rain = 0
KSC1 141207Z 32005KT M03/M03 A3018 RMK A01 T10291029  RH  100%=      5-min Rain = 0
KSC1 141208Z 32005KT M03/M03 A3018 RMK A01 T10291029  RH  100%=      5-min Rain = 0
KSC1 141209Z 32005KT M03/M03 A3018 RMK A01 T10291029  RH  100%=      5-min Rain = 0
KSC1 141210Z 32005KT M03/M03 A3018 RMK A01 T10291030  RH  100%=      5-min Rain = 0
KSC1 141211Z 31004KT M03/M03 A3018 RMK A01 T10291029  RH  100%=      5-min Rain = 0
KSC1 141212Z 33004KT M03/M03 A3019 RMK A01 T10291030  RH  100%=      5-min Rain = 0
KSC1 141213Z 33004KT M03/M03 A3019 RMK A01 T10301030  RH  100%=      5-min Rain = 0
KSC1 141214Z 33004KT M03/M03 A3019 RMK A01 T10301030  RH  100%=      5-min Rain = 0
KSC1 141215Z 33005KT M03/M03 A3019 RMK A01 T10301030  RH  100%=      5-min Rain = 0
KSC1 141216Z 33004KT M03/M03 A3019 RMK A01 T10301031  RH  100%=      5-min Rain = 0
KSC1 141217Z 33004KT M03/M03 A3019 RMK A01 T10301031  RH  100%=      5-min Rain = 0
KSC1 141218Z 33004KT M03/M03 A3019 RMK A01 T10311031  RH  100%=      5-min Rain = 0
KSC1 141219Z 33004KT M03/M03 A3019 RMK A01 T10321032  RH  100%=      5-min Rain = 0
KSC1 141220Z 32004KT M03/M03 A3019 RMK A01 T10321032  RH  100%=      5-min Rain = 0
KSC1 141221Z 32004KT M03/M03 A3019 RMK A01 T10321032  RH  100%=      5-min Rain = 0
KSC1 141222Z 32004KT M03/M03 A3019 RMK A01 T10321032  RH  100%=      5-min Rain = 0
KSC1 141223Z 32003KT M03/M03 A3019 RMK A01 T10321032  RH  100%=      5-min Rain = 0
KSC1 141224Z 32003KT M03/M03 A3019 RMK A01 T10321032  RH  100%=      5-min Rain = 0
KSC1 141225Z 32003KT M03/M03 A3019 RMK A01 T10321033  RH  100%=      5-min Rain = 0
KSC1 141226Z 32004KT M03/M03 A3019 RMK A01 T10321032  RH  100%=      5-min Rain = 0
KSC1 141227Z 32003KT M03/M03 A302 RMK A01 T10321032  RH  100%=      5-min Rain = 0
KSC1 141228Z 32003KT M03/M03 A302 RMK A01 T10321032  RH  100%=      5-min Rain = 0
KSC1 141229Z 32003KT M03/M03 A302 RMK A01 T10321032  RH  100%=      5-min Rain = 0
KSC1 141230Z 32003KT M03/M03 A302 RMK A01 T10321032  RH  100%=      5-min Rain = 0
KSC1 141231Z 32003KT M03/M03 A302 RMK A01 T10321032  RH  100%=      5-min Rain = 0
KSC1 141232Z 32003KT M03/M03 A302 RMK A01 T10321032  RH  100%=      5-min Rain = 0
KSC1 141233Z 32003KT M03/M03 A302 RMK A01 T10321032  RH  100%=      5-min Rain = 0
KSC1 141234Z 32003KT M03/M03 A302 RMK A01 T10321032  RH  100%=      5-min Rain = 0
KSC1 141235Z 32003KT M03/M03 A302 RMK A01 T10321032  RH  100%=      5-min Rain = 0
KSC1 141236Z 31003KT M03/M03 A302 RMK A01 T10331033  RH  100%=      5-min Rain = 0
KSC1 141237Z 31003KT M03/M03 A302 RMK A01 T10331033  RH  100%=      5-min Rain = 0
KSC1 141238Z 31003KT M03/M03 A302 RMK A01 T10331033  RH  100%=      5-min Rain = 0
KSC1 141239Z 31003KT M03/M03 A302 RMK A01 T10331033  RH  100%=      5-min Rain = 0
KSC1 141240Z 31003KT M03/M03 A302 RMK A01 T10331034  RH  100%=      5-min Rain = 0
KSC1 141241Z 31004KT M03/M03 A302 RMK A01 T10331033  RH  100%=      5-min Rain = 0
KSC1 141242Z 31004KT M03/M03 A302 RMK A01 T10331034  RH  100%=      5-min Rain = 0
KSC1 141243Z 31004KT M03/M03 A302 RMK A01 T10331033  RH  100%=      5-min Rain = 0
KSC1 141244Z 30004KT M03/M03 A302 RMK A01 T10331033  RH  100%=      5-min Rain = 0
KSC1 141245Z 30005KT M03/M03 A302 RMK A01 T10321033  RH  100%=      5-min Rain = 0
KSC1 141246Z 30005KT M03/M03 A302 RMK A01 T10321032  RH  100%=      5-min Rain = 0
KSC1 141247Z 30004KT M03/M03 A302 RMK A01 T10321032  RH  100%=      5-min Rain = 0
KSC1 141248Z 30004KT M03/M03 A302 RMK A01 T10321032  RH  100%=      5-min Rain = 0
KSC1 141249Z 30004KT M03/M03 A302 RMK A01 T10311032  RH  100%=      5-min Rain = 0
KSC1 141250Z 30003KT M03/M03 A3021 RMK A01 T10321032  RH  100%=      5-min Rain = 0
KSC1 141251Z 29003KT M03/M03 A3021 RMK A01 T10321032  RH  100%=      5-min Rain = 0
KSC1 141252Z 29003KT M03/M03 A3021 RMK A01 T10321032  RH  100%=      5-min Rain = 0
KSC1 141253Z 28003KT M03/M03 A3021 RMK A01 T10321032  RH  100%=      5-min Rain = 0
KSC1 141254Z 28003KT M03/M03 A3021 RMK A01 T10321032  RH  100%=      5-min Rain = 0
KSC1 141255Z 27003KT M03/M03 A3021 RMK A01 T10321032  RH  100%=      5-min Rain = 0
KSC1 141256Z 27003KT M03/M03 A3021 RMK A01 T10321032  RH  100%=      5-min Rain = 0
KSC1 141257Z 25002KT M03/M03 A3021 RMK A01 T10321032  RH  100%=      5-min Rain = 0
KSC1 141258Z 24002KT M03/M03 A3021 RMK A01 T10321032  RH  100%=      5-min Rain = 0
KSC1 141259Z 24003KT M03/M03 A3021 RMK A01 T10331033  RH  100%=      5-min Rain = 0
KSC1 141300Z 25003KT M03/M03 A3021 RMK A01 T10331034  RH  100%=      5-min Rain = 0
KSC1 141301Z 25003KT M03/M03 A3022 RMK A01 T10341034  RH  100%=      5-min Rain = 0
KSC1 141302Z 25003KT M03/M03 A3022 RMK A01 T10341034  RH  100%=      5-min Rain = 0
KSC1 141303Z 26003KT M03/M03 A3022 RMK A01 T10341034  RH  100%=      5-min Rain = 0
KSC1 141304Z 26003KT M03/M03 A3022 RMK A01 T10341034  RH  100%=      5-min Rain = 0
KSC1 141305Z 26003KT M03/M04 A3022 RMK A01 T10341035  RH  100%=      5-min Rain = 0
KSC1 141306Z 27003KT M04/M04 A3022 RMK A01 T10351035  RH  100%=      5-min Rain = 0
KSC1 141307Z 28003KT M04/M04 A3022 RMK A01 T10351035  RH  100%=      5-min Rain = 0
KSC1 141308Z 28003KT M03/M03 A3022 RMK A01 T10331033  RH  100%=      5-min Rain = 0
KSC1 141309Z 29004KT M03/M03 A3022 RMK A01 T10331033  RH  100%=      5-min Rain = 0
KSC1 141310Z 29004KT M03/M03 A3022 RMK A01 T10311031  RH  100%=      5-min Rain = 0
KSC1 141311Z 30005KT M03/M03 A3022 RMK A01 T10281028  RH  100%=      5-min Rain = 0
KSC1 141312Z 30004KT M03/M03 A3022 RMK A01 T10271027  RH  100%=      5-min Rain = 0
KSC1 141313Z 30005KT M03/M03 A3022 RMK A01 T10251026  RH  100%=      5-min Rain = 0
KSC1 141314Z 30005KT M02/M02 A3022 RMK A01 T10241024  RH  100%=      5-min Rain = 0
KSC1 141315Z 30005KT M02/M02 A3022 RMK A01 T10231023  RH  100%=      5-min Rain = 0
KSC1 141316Z 30005KT M02/M02 A3022 RMK A01 T10231024  RH  100%=      5-min Rain = 0
KSC1 141317Z 30005KT M02/M02 A3022 RMK A01 T10221023  RH  100%=      5-min Rain = 0
KSC1 141318Z 30005KT M02/M02 A3022 RMK A01 T10211021  RH  100%=      5-min Rain = 0
KSC1 141319Z 30005KT M02/M02 A3022 RMK A01 T10211021  RH  100%=      5-min Rain = 0
KSC1 141320Z 30005KT M02/M02 A3022 RMK A01 T10201020  RH  100%=      5-min Rain = 0
KSC1 141321Z 31006KT M02/M02 A3022 RMK A01 T10191019  RH  100%=      5-min Rain = 0
KSC1 141322Z 31005KT M02/M02 A3023 RMK A01 T10181019  RH  100%=      5-min Rain = 0
KSC1 141323Z 31006KT M02/M02 A3023 RMK A01 T10171017  RH  100%=      5-min Rain = 0
KSC1 141324Z 31006KT M02/M02 A3023 RMK A01 T10161016  RH  100%=      5-min Rain = 0
KSC1 141325Z 31006KT M02/M02 A3023 RMK A01 T10151015  RH  100%=      5-min Rain = 0
KSC1 141326Z 31005KT M01/M01 A3023 RMK A01 T10141014  RH  100%=      5-min Rain = 0
KSC1 141327Z 31006KT M01/M01 A3023 RMK A01 T10121012  RH  100%=      5-min Rain = 0
KSC1 141328Z 31006KT M01/M01 A3023 RMK A01 T10101010  RH  100%=      5-min Rain = 0
KSC1 141329Z 31006KT M01/M01 A3023 RMK A01 T10091009  RH  100%=      5-min Rain = 0
KSC1 141330Z 30006KT M01/M01 A3023 RMK A01 T10081008  RH  100%=      5-min Rain = 0
KSC1 141331Z 31006KT M01/M01 A3023 RMK A01 T10071008  RH  100%=      5-min Rain = 0
KSC1 141332Z 31006KT M01/M01 A3023 RMK A01 T10071007  RH  100%=      5-min Rain = 0
KSC1 141333Z 31006KT M01/M01 A3023 RMK A01 T10061006  RH  100%=      5-min Rain = 0
KSC1 141334Z 31006KT M01/M01 A3023 RMK A01 T10051005  RH  100%=      5-min Rain = 0
KSC1 141335Z 31005KT M00/M01 A3023 RMK A01 T10041005  RH  100%=      5-min Rain = 0
KSC1 141336Z 30006KT M00/M00 A3023 RMK A01 T10041004  RH  100%=      5-min Rain = 0
KSC1 141337Z 30005KT M00/M00 A3023 RMK A01 T10041004  RH  100%=      5-min Rain = 0
KSC1 141338Z 30005KT M00/M00 A3023 RMK A01 T10041004  RH  100%=      5-min Rain = 0
KSC1 141339Z 31005KT M00/M00 A3024 RMK A01 T10031003  RH  100%=      5-min Rain = 0
KSC1 141340Z 30005KT M00/M00 A3024 RMK A01 T10021003  RH  100%=      5-min Rain = 0
KSC1 141341Z 31004KT M00/M00 A3024 RMK A01 T10021002  RH  100%=      5-min Rain = 0
KSC1 141342Z 31005KT M00/M00 A3024 RMK A01 T10021002  RH  100%=      5-min Rain = 0
KSC1 141343Z 31004KT M00/M00 A3024 RMK A01 T10011002  RH  100%=      5-min Rain = 0
KSC1 141344Z 31004KT 00/00 A3024 RMK A01 T00-000-1  RH  100%=      5-min Rain = 0
KSC1 141345Z 30004KT 00/00 A3024 RMK A01 T00-000-0  RH  100%=      5-min Rain = 0
KSC1 141346Z 29004KT 00/00 A3024 RMK A01 T000000-0  RH  100%=      5-min Rain = 0
KSC1 141347Z 29004KT 00/00 A3024 RMK A01 T00010001  RH  100%=      5-min Rain = 0
KSC1 141348Z 29003KT 00/00 A3024 RMK A01 T00010000  RH  100%=      5-min Rain = 0
KSC1 141349Z 27004KT 00/00 A3024 RMK A01 T00010001  RH  100%=      5-min Rain = 0
KSC1 141350Z 28004KT 00/00 A3024 RMK A01 T00010001  RH  100%=      5-min Rain = 0
KSC1 141351Z 29003KT 00/00 A3024 RMK A01 T00020002  RH  100%=      5-min Rain = 0
KSC1 141352Z 29003KT 00/00 A3024 RMK A01 T00030003  RH  100%=      5-min Rain = 0
KSC1 141353Z 31003KT 00/00 A3024 RMK A01 T00030003  RH  100%=      5-min Rain = 0
KSC1 141354Z 30004KT 00/00 A3024 RMK A01 T00040004  RH  100%=      5-min Rain = 0
KSC1 141355Z 29004KT 01/01 A3024 RMK A01 T00050005  RH  100%=      5-min Rain = 0
KSC1 141356Z 29004KT 01/01 A3024 RMK A01 T00050005  RH  100%=      5-min Rain = 0
KSC1 141357Z 30004KT 01/01 A3024 RMK A01 T00060006  RH  100%=      5-min Rain = 0
KSC1 141358Z 29004KT 01/01 A3024 RMK A01 T00070007  RH  100%=      5-min Rain = 0
KSC1 141359Z 29005KT 01/01 A3024 RMK A01 T00080008  RH  100%=      5-min Rain = 0
KSC1 141400Z 29005KT 01/01 A3024 RMK A01 T00080008  RH  100%=      5-min Rain = 0
KSC1 141401Z 30005KT 01/01 A3024 RMK A01 T00090009  RH  100%=      5-min Rain = 0
KSC1 141402Z 29004KT 01/01 A3024 RMK A01 T00090009  RH  100%=      5-min Rain = 0
KSC1 141403Z 29004KT 01/01 A3025 RMK A01 T00090009  RH  100%=      5-min Rain = 0
KSC1 141404Z 28004KT 01/01 A3025 RMK A01 T00100010  RH  100%=      5-min Rain = 0
KSC1 141405Z 28005KT 01/01 A3025 RMK A01 T00100010  RH  100%=      5-min Rain = 0
KSC1 141406Z 27004KT 01/01 A3025 RMK A01 T00110010  RH  100%=      5-min Rain = 0
KSC1 141407Z 27004KT 01/01 A3025 RMK A01 T00100010  RH  100%=      5-min Rain = 0
KSC1 141408Z 25003KT 01/01 A3025 RMK A01 T00100010  RH  100%=      5-min Rain = 0
KSC1 141409Z 25003KT 01/01 A3025 RMK A01 T00110011  RH  100%=      5-min Rain = 0
KSC1 141410Z 23003KT 01/01 A3025 RMK A01 T00120012  RH  100%=      5-min Rain = 0
KSC1 141411Z 21002KT 01/01 A3025 RMK A01 T00120012  RH  100%=      5-min Rain = 0
KSC1 141412Z 20002KT 01/01 A3025 RMK A01 T00130013  RH  100%=      5-min Rain = 0
KSC1 141413Z 19003KT 01/01 A3026 RMK A01 T00140014  RH  100%=      5-min Rain = 0
KSC1 141414Z 18003KT 02/01 A3026 RMK A01 T00150014  RH  100%=      5-min Rain = 0
KSC1 141415Z 19002KT 02/02 A3026 RMK A01 T00150015  RH  100%=      5-min Rain = 0
KSC1 141416Z 22002KT 02/02 A3026 RMK A01 T00160016  RH  100%=      5-min Rain = 0
KSC1 141417Z 21001KT 02/02 A3026 RMK A01 T00170017  RH  100%=      5-min Rain = 0
KSC1 141418Z 23001KT 02/02 A3026 RMK A01 T00180018  RH  100%=      5-min Rain = 0
KSC1 141419Z 25000KT 02/02 A3026 RMK A01 T00190019  RH  100%=      5-min Rain = 0
KSC1 141420Z 30002KT 02/02 A3026 RMK A01 T00200020  RH  100%=      5-min Rain = 0
KSC1 141421Z 30002KT 02/02 A3026 RMK A01 T00210021  RH  100%=      5-min Rain = 0
KSC1 141422Z 31003KT 02/02 A3026 RMK A01 T00210021  RH  100%=      5-min Rain = 0
KSC1 141423Z 30003KT 02/02 A3026 RMK A01 T00210020  RH  100%=      5-min Rain = 0
KSC1 141424Z 33004KT 02/02 A3026 RMK A01 T00210020  RH  099%=      5-min Rain = 0
KSC1 141425Z 33004KT 02/02 A3027 RMK A01 T00220021  RH  099%=      5-min Rain = 0
KSC1 141426Z 33003KT 02/02 A3027 RMK A01 T00230022  RH  099%=      5-min Rain = 0
KSC1 141427Z 35004KT 03/02 A3027 RMK A01 T00250023  RH  099%=      5-min Rain = 0
KSC1 141428Z 34004KT 03/02 A3027 RMK A01 T00260024  RH  099%=      5-min Rain = 0
KSC1 141429Z 34004KT 03/02 A3027 RMK A01 T00270024  RH  098%=      5-min Rain = 0
KSC1 141430Z 34004KT 03/03 A3027 RMK A01 T00290025  RH  097%=      5-min Rain = 0
KSC1 141431Z 35006KT 03/03 A3027 RMK A01 T00300025  RH  096%=      5-min Rain = 0
KSC1 141432Z 35006KT 03/02 A3027 RMK A01 T00310024  RH  095%=      5-min Rain = 0
KSC1 141433Z 35006KT 03/02 A3027 RMK A01 T00320023  RH  094%=      5-min Rain = 0
KSC1 141434Z 35005KT 03/02 A3027 RMK A01 T00330022  RH  092%=      5-min Rain = 0
KSC1 141435Z 00006KT 04/02 A3027 RMK A01 T00350023  RH  092%=      5-min Rain = 0
KSC1 141436Z 34005KT 04/02 A3027 RMK A01 T00350021  RH  091%=      5-min Rain = 0
KSC1 141437Z 35005KT 04/02 A3027 RMK A01 T00350019  RH  089%=      5-min Rain = 0
KSC1 141438Z 36004KT 04/02 A3027 RMK A01 T00360019  RH  089%=      5-min Rain = 0
KSC1 141439Z 34004KT 04/02 A3027 RMK A01 T00370020  RH  089%=      5-min Rain = 0
KSC1 141440Z 33004KT 04/02 A3027 RMK A01 T00380021  RH  089%=      5-min Rain = 0
KSC1 141441Z 31005KT 04/02 A3027 RMK A01 T00380018  RH  087%=      5-min Rain = 0
KSC1 141442Z 31004KT 04/02 A3028 RMK A01 T00380017  RH  086%=      5-min Rain = 0
KSC1 141443Z 32003KT 04/02 A3028 RMK A01 T00390019  RH  087%=      5-min Rain = 0
KSC1 141444Z 33004KT 04/02 A3028 RMK A01 T00400019  RH  087%=      5-min Rain = 0
KSC1 141445Z 31003KT 04/02 A3028 RMK A01 T00400020  RH  087%=      5-min Rain = 0
KSC1 141446Z 33004KT 04/02 A3028 RMK A01 T00410023  RH  088%=      5-min Rain = 0
KSC1 141447Z 32004KT 04/02 A3028 RMK A01 T00420022  RH  087%=      5-min Rain = 0
KSC1 141448Z 32004KT 04/02 A3028 RMK A01 T00420021  RH  086%=      5-min Rain = 0
KSC1 141449Z 32004KT 04/02 A3028 RMK A01 T00440023  RH  086%=      5-min Rain = 0
KSC1 141450Z 32004KT 05/02 A3028 RMK A01 T00450023  RH  086%=      5-min Rain = 0
KSC1 141451Z 34002KT 05/02 A3029 RMK A01 T00460022  RH  085%=      5-min Rain = 0
KSC1 141452Z 35003KT 05/02 A3029 RMK A01 T00470024  RH  085%=      5-min Rain = 0
KSC1 141453Z 02002KT 05/03 A3029 RMK A01 T00490025  RH  085%=      5-min Rain = 0
KSC1 141454Z 36003KT 05/02 A3029 RMK A01 T00490020  RH  081%=      5-min Rain = 0
KSC1 141455Z 36003KT 05/02 A3029 RMK A01 T00500022  RH  082%=      5-min Rain = 0
KSC1 141456Z 00003KT 05/02 A3029 RMK A01 T00520023  RH  082%=      5-min Rain = 0
KSC1 141457Z 36004KT 05/02 A3029 RMK A01 T00530018  RH  079%=      5-min Rain = 0
KSC1 141458Z 01004KT 05/02 A3029 RMK A01 T00530019  RH  079%=      5-min Rain = 0
KSC1 141459Z 03005G10KT 05/02 A303 RMK A01 T00540018  RH  078%=      5-min Rain = 0
KSC1 141500Z 01006KT 06/02 A303 RMK A01 T00550017  RH  077%=      5-min Rain = 0
KSC1 141501Z 36006KT 06/02 A303 RMK A01 T00560020  RH  078%=      5-min Rain = 0
KSC1 141502Z 01009KT 06/02 A303 RMK A01 T00570017  RH  076%=      5-min Rain = 0
KSC1 141503Z 02010KT 06/01 A303 RMK A01 T00560013  RH  074%=      5-min Rain = 0
KSC1 141504Z 00007KT 06/01 A303 RMK A01 T00560013  RH  074%=      5-min Rain = 0
KSC1 141505Z 01008KT 06/01 A303 RMK A01 T00560013  RH  074%=      5-min Rain = 0
KSC1 141506Z 01009KT 06/01 A303 RMK A01 T00570013  RH  073%=      5-min Rain = 0
KSC1 141507Z 01008KT 06/01 A303 RMK A01 T00570013  RH  073%=      5-min Rain = 0
KSC1 141508Z 00006KT 06/01 A303 RMK A01 T00580013  RH  073%=      5-min Rain = 0
KSC1 141509Z 36008KT 06/01 A303 RMK A01 T00590014  RH  073%=      5-min Rain = 0
KSC1 141510Z 01010KT 06/01 A3031 RMK A01 T00600013  RH  072%=      5-min Rain = 0
KSC1 141511Z 01010KT 06/01 A3031 RMK A01 T00610012  RH  071%=      5-min Rain = 0
KSC1 141512Z 00011KT 06/01 A3031 RMK A01 T00600010  RH  070%=      5-min Rain = 0
KSC1 141513Z 01007G13KT 06/01 A3031 RMK A01 T00610010  RH  070%=      5-min Rain = 0
KSC1 141514Z 01010KT 06/01 A3031 RMK A01 T00610011  RH  070%=      5-min Rain = 0
KSC1 141515Z 01010KT 06/01 A3031 RMK A01 T00620009  RH  069%=      5-min Rain = 0
KSC1 141516Z 02011KT 06/01 A3031 RMK A01 T00620008  RH  069%=      5-min Rain = 0
KSC1 141517Z 02012KT 06/01 A3031 RMK A01 T00610007  RH  068%=      5-min Rain = 0
KSC1 141518Z 02014KT 06/01 A3031 RMK A01 T00610007  RH  068%=      5-min Rain = 0
KSC1 141519Z 02011G16KT 06/01 A3031 RMK A01 T00620006  RH  068%=      5-min Rain = 0
KSC1 141520Z 01009G14KT 06/01 A3031 RMK A01 T00620007  RH  067%=      5-min Rain = 0
KSC1 141521Z 02008G16KT 06/01 A3031 RMK A01 T00630009  RH  068%=      5-min Rain = 0
KSC1 141522Z 01014KT 06/01 A3032 RMK A01 T00640006  RH  066%=      5-min Rain = 0
KSC1 141523Z 01011KT 06/00 A3032 RMK A01 T00640004  RH  065%=      5-min Rain = 0
KSC1 141524Z 01007KT 06/01 A3032 RMK A01 T00640006  RH  066%=      5-min Rain = 0
KSC1 141525Z 01009KT 07/01 A3032 RMK A01 T00660007  RH  066%=      5-min Rain = 0
KSC1 141526Z 01010KT 07/01 A3032 RMK A01 T00670006  RH  065%=      5-min Rain = 0
KSC1 141527Z 01011KT 07/00 A3032 RMK A01 T00670004  RH  064%=      5-min Rain = 0
KSC1 141528Z 00013KT 07/00 A3032 RMK A01 T00670003  RH  063%=      5-min Rain = 0
KSC1 141529Z 01011KT 07/00 A3032 RMK A01 T00670002  RH  063%=      5-min Rain = 0
KSC1 141530Z 02010KT 07/00 A3032 RMK A01 T00670001  RH  063%=      5-min Rain = 0
KSC1 141531Z 00009KT 07/00 A3032 RMK A01 T00670001  RH  063%=      5-min Rain = 0
KSC1 141532Z 00014KT 07/00 A3032 RMK A01 T00690002  RH  063%=      5-min Rain = 0
KSC1 141533Z 00014KT 07/M00 A3032 RMK A01 T00681001  RH  061%=      5-min Rain = 0
KSC1 141534Z 01014KT 07/M00 A3032 RMK A01 T00671003  RH  061%=      5-min Rain = 0
KSC1 141535Z 01013G18KT 07/M00 A3032 RMK A01 T00671003  RH  061%=      5-min Rain = 0
KSC1 141536Z 02011KT 07/M00 A3033 RMK A01 T00671003  RH  061%=      5-min Rain = 0
KSC1 141537Z 02009KT 07/M00 A3033 RMK A01 T00671002  RH  062%=      5-min Rain = 0
KSC1 141538Z 02011KT 07/00 A3033 RMK A01 T006800-0  RH  062%=      5-min Rain = 0
KSC1 141539Z 00009KT 07/M00 A3033 RMK A01 T00701001  RH  061%=      5-min Rain = 0
KSC1 141540Z 36012KT 07/M00 A3033 RMK A01 T00701002  RH  060%=      5-min Rain = 0
KSC1 141541Z 36011KT 07/M00 A3033 RMK A01 T00701003  RH  060%=      5-min Rain = 0
KSC1 141542Z 01009KT 07/M00 A3033 RMK A01 T00691003  RH  060%=      5-min Rain = 0
KSC1 141543Z 00009KT 07/M00 A3033 RMK A01 T00701001  RH  060%=      5-min Rain = 0
KSC1 141544Z 00011KT 07/M00 A3033 RMK A01 T00731001  RH  059%=      5-min Rain = 0
KSC1 141545Z 00012G17KT 07/M00 A3033 RMK A01 T00731003  RH  059%=      5-min Rain = 0
KSC1 141546Z 01010G15KT 07/M00 A3033 RMK A01 T00721003  RH  059%=      5-min Rain = 0
KSC1 141547Z 00013KT 07/M00 A3034 RMK A01 T00721003  RH  059%=      5-min Rain = 0
KSC1 141548Z 01012KT 07/M01 A3034 RMK A01 T00721005  RH  058%=      5-min Rain = 0
KSC1 141549Z 01012KT 07/M01 A3034 RMK A01 T00721005  RH  058%=      5-min Rain = 0
KSC1 141550Z 00013KT 07/M01 A3034 RMK A01 T00721005  RH  058%=      5-min Rain = 0
KSC1 141551Z 00013KT 07/M01 A3034 RMK A01 T00711006  RH  058%=      5-min Rain = 0
KSC1 141552Z 02009G14KT 07/M01 A3034 RMK A01 T00701007  RH  058%=      5-min Rain = 0
KSC1 141553Z 01008KT 07/M00 A3034 RMK A01 T00721004  RH  058%=      5-min Rain = 0
KSC1 141554Z 01008G13KT 07/M00 A3034 RMK A01 T00741003  RH  058%=      5-min Rain = 0
KSC1 141555Z 36010KT 08/M00 A3034 RMK A01 T00761003  RH  057%=      5-min Rain = 0
KSC1 141556Z 01009KT 08/M00 A3034 RMK A01 T00761004  RH  057%=      5-min Rain = 0
KSC1 141557Z 01012KT 08/M00 A3034 RMK A01 T00771004  RH  057%=      5-min Rain = 0
KSC1 141558Z 01015KT 08/M01 A3034 RMK A01 T00751008  RH  056%=      5-min Rain = 0
KSC1 141559Z 01014KT 07/M01 A3034 RMK A01 T00721009  RH  056%=      5-min Rain = 0
KSC1 141600Z 01012KT 07/M01 A3034 RMK A01 T00721008  RH  057%=      5-min Rain = 0
KSC1 141601Z 02011KT 07/M01 A3034 RMK A01 T00731007  RH  057%=      5-min Rain = 0
KSC1 141602Z 02011KT 07/M01 A3034 RMK A01 T00741007  RH  057%=      5-min Rain = 0
KSC1 141603Z 00014KT 08/M01 A3034 RMK A01 T00751007  RH  056%=      5-min Rain = 0
KSC1 141604Z 01012KT 07/M01 A3034 RMK A01 T00741010  RH  055%=      5-min Rain = 0
KSC1 141605Z 01011G17KT 07/M01 A3035 RMK A01 T00731010  RH  056%=      5-min Rain = 0
KSC1 141606Z 01014KT 07/M01 A3035 RMK A01 T00741008  RH  056%=      5-min Rain = 0
KSC1 141607Z 02011KT 08/M01 A3035 RMK A01 T00751010  RH  055%=      5-min Rain = 0
KSC1 141608Z 02010KT 08/M01 A3035 RMK A01 T00751008  RH  055%=      5-min Rain = 0
KSC1 141609Z 01008KT 08/M01 A3035 RMK A01 T00761006  RH  056%=      5-min Rain = 0
KSC1 141610Z 36011KT 08/M01 A3035 RMK A01 T00781005  RH  055%=      5-min Rain = 0
KSC1 141611Z 01012KT 08/M01 A3035 RMK A01 T00791007  RH  055%=      5-min Rain = 0
KSC1 141612Z 01012G17KT 08/M01 A3035 RMK A01 T00791008  RH  054%=      5-min Rain = 0
KSC1 141613Z 01011KT 08/M01 A3035 RMK A01 T00781009  RH  054%=      5-min Rain = 0
KSC1 141614Z 00014KT 08/M01 A3035 RMK A01 T00781010  RH  054%=      5-min Rain = 0
KSC1 141615Z 02010KT 08/M01 A3035 RMK A01 T00781011  RH  053%=      5-min Rain = 0
KSC1 141616Z 01013KT 08/M01 A3035 RMK A01 T00791009  RH  054%=      5-min Rain = 0
KSC1 141617Z 01010KT 08/M01 A3035 RMK A01 T00791010  RH  053%=      5-min Rain = 0
KSC1 141618Z 01011KT 08/M01 A3035 RMK A01 T00801009  RH  053%=      5-min Rain = 0
KSC1 141619Z 00013KT 08/M01 A3035 RMK A01 T00811009  RH  053%=      5-min Rain = 0
KSC1 141620Z 01010KT 08/M01 A3035 RMK A01 T00811009  RH  053%=      5-min Rain = 0
KSC1 141621Z 01011KT 08/M01 A3035 RMK A01 T00811008  RH  053%=      5-min Rain = 0
KSC1 141622Z 01012KT 08/M01 A3035 RMK A01 T00831009  RH  052%=      5-min Rain = 0
KSC1 141623Z 00011KT 08/M01 A3035 RMK A01 T00831010  RH  052%=      5-min Rain = 0
KSC1 141624Z 00011KT 08/M01 A3035 RMK A01 T00841010  RH  052%=      5-min Rain = 0
KSC1 141625Z 02012KT 08/M01 A3035 RMK A01 T00841010  RH  051%=      5-min Rain = 0
KSC1 141626Z 01012G17KT 09/M01 A3035 RMK A01 T00851010  RH  051%=      5-min Rain = 0
KSC1 141627Z 01013KT 09/M01 A3035 RMK A01 T00851010  RH  051%=      5-min Rain = 0
KSC1 141628Z 01013KT 09/M01 A3035 RMK A01 T00851011  RH  051%=      5-min Rain = 0
KSC1 141629Z 01011KT 08/M01 A3035 RMK A01 T00841012  RH  051%=      5-min Rain = 0
KSC1 141630Z 01014KT 08/M01 A3035 RMK A01 T00841012  RH  051%=      5-min Rain = 0
KSC1 141631Z 02011KT 08/M01 A3035 RMK A01 T00841012  RH  051%=      5-min Rain = 0
KSC1 141632Z 02011KT 09/M01 A3035 RMK A01 T00851011  RH  051%=      5-min Rain = 0
KSC1 141633Z 02010KT 09/M01 A3035 RMK A01 T00871011  RH  050%=      5-min Rain = 0
KSC1 141634Z 01011G16KT 09/M01 A3035 RMK A01 T00891010  RH  050%=      5-min Rain = 0
KSC1 141635Z 36008KT 09/M01 A3035 RMK A01 T00901009  RH  050%=      5-min Rain = 0
KSC1 141636Z 00007KT 09/M01 A3035 RMK A01 T00921006  RH  050%=      5-min Rain = 0
KSC1 141637Z 01015KT 09/M01 A3035 RMK A01 T00941007  RH  049%=      5-min Rain = 0
KSC1 141638Z 02014KT 09/M01 A3035 RMK A01 T00941013  RH  047%=      5-min Rain = 0
KSC1 141639Z 02014KT 09/M02 A3035 RMK A01 T00921016  RH  047%=      5-min Rain = 0
KSC1 141640Z 02014KT 09/M02 A3035 RMK A01 T00911018  RH  046%=      5-min Rain = 0
KSC1 141641Z 03013KT 09/M02 A3035 RMK A01 T00911019  RH  046%=      5-min Rain = 0
KSC1 141642Z 02010G15KT 09/M02 A3035 RMK A01 T00921018  RH  046%=      5-min Rain = 0
KSC1 141643Z 01011G19KT 09/M02 A3035 RMK A01 T00931019  RH  045%=      5-min Rain = 0
KSC1 141644Z 02014KT 09/M02 A3035 RMK A01 T00941020  RH  045%=      5-min Rain = 0
KSC1 141645Z 02015KT 09/M02 A3035 RMK A01 T00941021  RH  044%=      5-min Rain = 0
KSC1 141646Z 02011KT 09/M02 A3035 RMK A01 T00931022  RH  044%=      5-min Rain = 0
KSC1 141647Z 02010KT 10/M02 A3035 RMK A01 T00951020  RH  045%=      5-min Rain = 0
KSC1 141648Z 02010KT 10/M02 A3035 RMK A01 T00971020  RH  044%=      5-min Rain = 0
KSC1 141649Z 01013G19KT 10/M02 A3035 RMK A01 T00991019  RH  044%=      5-min Rain = 0
KSC1 141650Z 02014KT 10/M02 A3035 RMK A01 T00981022  RH  043%=      5-min Rain = 0
KSC1 141651Z 02014KT 10/M02 A3035 RMK A01 T00981023  RH  043%=      5-min Rain = 0
KSC1 141652Z 01016KT 10/M02 A3035 RMK A01 T00971024  RH  043%=      5-min Rain = 0
KSC1 141653Z 01012KT 10/M03 A3035 RMK A01 T00961025  RH  043%=      5-min Rain = 0
KSC1 141654Z 02013KT 10/M02 A3035 RMK A01 T00961023  RH  043%=      5-min Rain = 0
KSC1 141655Z 02012G17KT 10/M02 A3035 RMK A01 T00961024  RH  043%=      5-min Rain = 0
KSC1 141656Z 02012KT 10/M02 A3035 RMK A01 T00971023  RH  043%=      5-min Rain = 0
KSC1 141657Z 01012KT 10/M02 A3035 RMK A01 T00971024  RH  043%=      5-min Rain = 0
KSC1 141658Z 01015KT 10/M02 A3035 RMK A01 T00981023  RH  043%=      5-min Rain = 0
KSC1 141659Z 01016KT 10/M02 A3035 RMK A01 T00991024  RH  042%=      5-min Rain = 0
KSC1 141700Z 01012G17KT 10/M03 A3035 RMK A01 T00981025  RH  042%=      5-min Rain = 0
KSC1 141701Z 01013KT 10/M02 A3035 RMK A01 T00981023  RH  043%=      5-min Rain = 0
KSC1 141702Z 02010KT 10/M02 A3035 RMK A01 T01001023  RH  042%=      5-min Rain = 0
KSC1 141703Z 02013KT 10/M02 A3035 RMK A01 T01001024  RH  042%=      5-min Rain = 0
KSC1 141704Z 03011KT 10/M03 A3035 RMK A01 T00991025  RH  042%=      5-min Rain = 0
KSC1 141705Z 03014KT 10/M02 A3035 RMK A01 T01001024  RH  042%=      5-min Rain = 0
KSC1 141706Z 01012KT 10/M02 A3035 RMK A01 T01001024  RH  042%=      5-min Rain = 0
KSC1 141707Z 02011KT 10/M02 A3035 RMK A01 T01011023  RH  042%=      5-min Rain = 0
KSC1 141708Z 36010KT 10/M02 A3035 RMK A01 T01011023  RH  042%=      5-min Rain = 0
KSC1 141709Z 00010KT 10/M02 A3035 RMK A01 T01021023  RH  041%=      5-min Rain = 0
KSC1 141710Z 03013KT 10/M02 A3035 RMK A01 T01041022  RH  041%=      5-min Rain = 0
KSC1 141711Z 04014KT 10/M03 A3035 RMK A01 T01041025  RH  040%=      5-min Rain = 0
KSC1 141712Z 03010KT 10/M03 A3035 RMK A01 T01031027  RH  040%=      5-min Rain = 0
KSC1 141713Z 02010KT 11/M02 A3035 RMK A01 T01051022  RH  041%=      5-min Rain = 0
KSC1 141714Z 02008KT 11/M02 A3035 RMK A01 T01071022  RH  041%=      5-min Rain = 0
KSC1 141715Z 02011G18KT 11/M02 A3035 RMK A01 T01091023  RH  040%=      5-min Rain = 0
KSC1 141716Z 04014KT 11/M03 A3036 RMK A01 T01091030  RH  038%=      5-min Rain = 0
KSC1 141717Z 03015KT 11/M03 A3036 RMK A01 T01061032  RH  038%=      5-min Rain = 0
KSC1 141718Z 03014KT 10/M03 A3036 RMK A01 T01041033  RH  038%=      5-min Rain = 0
KSC1 141719Z 02012KT 10/M03 A3036 RMK A01 T01041033  RH  038%=      5-min Rain = 0
KSC1 141720Z 02012KT 11/M03 A3036 RMK A01 T01051031  RH  038%=      5-min Rain = 0
KSC1 141721Z 03013KT 11/M03 A3036 RMK A01 T01061032  RH  038%=      5-min Rain = 0
KSC1 141722Z 02013G18KT 11/M03 A3036 RMK A01 T01051034  RH  037%=      5-min Rain = 0
KSC1 141723Z 03011KT 11/M03 A3035 RMK A01 T01051033  RH  038%=      5-min Rain = 0
KSC1 141724Z 02011KT 11/M03 A3035 RMK A01 T01071031  RH  038%=      5-min Rain = 0
KSC1 141725Z 02012G17KT 11/M03 A3035 RMK A01 T01081032  RH  037%=      5-min Rain = 0
KSC1 141726Z 02009KT 11/M03 A3035 RMK A01 T01081034  RH  037%=      5-min Rain = 0
KSC1 141727Z 02013KT 11/M03 A3035 RMK A01 T01091032  RH  037%=      5-min Rain = 0
KSC1 141728Z 01014KT 11/M04 A3035 RMK A01 T01091035  RH  036%=      5-min Rain = 0
KSC1 141729Z 02013KT 11/M03 A3035 RMK A01 T01071034  RH  037%=      5-min Rain = 0
KSC1 141730Z 02012KT 11/M03 A3035 RMK A01 T01071033  RH  037%=      5-min Rain = 0
KSC1 141731Z 03010KT 11/M03 A3035 RMK A01 T01091033  RH  037%=      5-min Rain = 0
KSC1 141732Z 04012KT 11/M03 A3035 RMK A01 T01101030  RH  037%=      5-min Rain = 0
KSC1 141733Z 03011KT 11/M03 A3035 RMK A01 T01101032  RH  037%=      5-min Rain = 0
KSC1 141734Z 02008KT 11/M03 A3035 RMK A01 T01081031  RH  038%=      5-min Rain = 0
KSC1 141735Z 02013KT 11/M03 A3035 RMK A01 T01111030  RH  037%=      5-min Rain = 0
KSC1 141736Z 01014KT 11/M03 A3035 RMK A01 T01111032  RH  037%=      5-min Rain = 0
KSC1 141737Z 01011KT 11/M03 A3035 RMK A01 T01101031  RH  037%=      5-min Rain = 0
KSC1 141738Z 01013KT 11/M03 A3035 RMK A01 T01101032  RH  037%=      5-min Rain = 0
KSC1 141739Z 02011KT 11/M03 A3035 RMK A01 T01101031  RH  037%=      5-min Rain = 0
KSC1 141740Z 02012KT 11/M03 A3035 RMK A01 T01111031  RH  037%=      5-min Rain = 0
KSC1 141741Z 01011KT 11/M03 A3035 RMK A01 T01111032  RH  037%=      5-min Rain = 0
KSC1 141742Z 02012KT 11/M03 A3035 RMK A01 T01121031  RH  037%=      5-min Rain = 0
KSC1 141743Z 03009KT 11/M03 A3035 RMK A01 T01131032  RH  036%=      5-min Rain = 0
KSC1 141744Z 03012G17KT 12/M03 A3035 RMK A01 T01161030  RH  036%=      5-min Rain = 0
KSC1 141745Z 03015KT 12/M03 A3035 RMK A01 T01151033  RH  035%=      5-min Rain = 0
KSC1 141746Z 03009G14KT 11/M04 A3035 RMK A01 T01131035  RH  035%=      5-min Rain = 0
KSC1 141747Z 03011KT 11/M03 A3035 RMK A01 T01141032  RH  036%=      5-min Rain = 0
KSC1 141748Z 04009KT 12/M03 A3035 RMK A01 T01151033  RH  035%=      5-min Rain = 0
KSC1 141749Z 04014KT 12/M03 A3035 RMK A01 T01161032  RH  035%=      5-min Rain = 0
KSC1 141750Z 03011KT 12/M03 A3035 RMK A01 T01161033  RH  035%=      5-min Rain = 0
KSC1 141751Z 03011KT 12/M03 A3035 RMK A01 T01161033  RH  035%=      5-min Rain = 0
KSC1 141752Z 03009KT 12/M03 A3035 RMK A01 T01161033  RH  035%=      5-min Rain = 0
KSC1 141753Z 02011KT 12/M03 A3035 RMK A01 T01171032  RH  035%=      5-min Rain = 0
KSC1 141754Z 03011KT 12/M03 A3035 RMK A01 T01181032  RH  035%=      5-min Rain = 0
KSC1 141755Z 02009KT 11/M04 A3035 RMK A01 T01141036  RH  035%=      5-min Rain = 0
KSC1 141756Z 01010KT 11/M03 A3035 RMK A01 T01121034  RH  036%=      5-min Rain = 0
KSC1 141757Z 02011KT 11/M03 A3035 RMK A01 T01141033  RH  035%=      5-min Rain = 0
KSC1 141758Z 03011KT 12/M03 A3035 RMK A01 T01161033  RH  035%=      5-min Rain = 0
KSC1 141759Z 02013KT 12/M04 A3035 RMK A01 T01171037  RH  034%=      5-min Rain = 0
KSC1 141800Z 03012KT 12/M04 A3035 RMK A01 T01161037  RH  034%=      5-min Rain = 0
KSC1 141801Z 04011KT 12/M04 A3035 RMK A01 T01161037  RH  034%=      5-min Rain = 0
KSC1 141802Z 03010KT 12/M04 A3035 RMK A01 T01171035  RH  034%=      5-min Rain = 0
KSC1 141803Z 02010KT 12/M03 A3035 RMK A01 T01211032  RH  034%=      5-min Rain = 0
KSC1 141804Z 03010KT 12/M03 A3035 RMK A01 T01231034  RH  033%=      5-min Rain = 0
KSC1 141805Z 03010KT 12/M04 A3035 RMK A01 T01211036  RH  033%=      5-min Rain = 0
KSC1 141806Z 03011KT 12/M04 A3035 RMK A01 T01201036  RH  034%=      5-min Rain = 0
KSC1 141807Z 03011KT 12/M04 A3035 RMK A01 T01191035  RH  034%=      5-min Rain = 0
KSC1 141808Z 03011KT 12/M04 A3035 RMK A01 T01201035  RH  034%=      5-min Rain = 0
KSC1 141809Z 03009KT 12/M04 A3035 RMK A01 T01181036  RH  034%=      5-min Rain = 0
KSC1 141810Z 03012G19KT 12/M03 A3035 RMK A01 T01191034  RH  034%=      5-min Rain = 0
KSC1 141811Z 04016KT 12/M04 A3035 RMK A01 T01201036  RH  033%=      5-min Rain = 0
KSC1 141812Z 04013KT 12/M04 A3035 RMK A01 T01201038  RH  033%=      5-min Rain = 0
KSC1 141813Z 04010G16KT 12/M04 A3035 RMK A01 T01201036  RH  033%=      5-min Rain = 0
KSC1 141814Z 02011G17KT 12/M03 A3035 RMK A01 T01231033  RH  033%=      5-min Rain = 0
KSC1 141815Z 00011KT 12/M03 A3035 RMK A01 T01241031  RH  034%=      5-min Rain = 0
KSC1 141816Z 01013KT 13/M03 A3035 RMK A01 T01251033  RH  033%=      5-min Rain = 0
KSC1 141817Z 01010G15KT 12/M04 A3035 RMK A01 T01211035  RH  033%=      5-min Rain = 0
KSC1 141818Z 04009KT 12/M03 A3035 RMK A01 T01201034  RH  034%=      5-min Rain = 0
KSC1 141819Z 02008KT 12/M04 A3035 RMK A01 T01221037  RH  033%=      5-min Rain = 0
KSC1 141820Z 02010G16KT 13/M04 A3035 RMK A01 T01251035  RH  033%=      5-min Rain = 0
KSC1 141821Z 04014KT 13/M04 A3035 RMK A01 T01271038  RH  032%=      5-min Rain = 0
KSC1 141822Z 04011KT 13/M04 A3035 RMK A01 T01251042  RH  031%=      5-min Rain = 0
KSC1 141823Z 04012KT 12/M04 A3035 RMK A01 T01231041  RH  032%=      5-min Rain = 0
KSC1 141824Z 02009KT 12/M04 A3035 RMK A01 T01231038  RH  032%=      5-min Rain = 0
KSC1 141825Z 03008KT 12/M03 A3035 RMK A01 T01241034  RH  033%=      5-min Rain = 0
KSC1 141826Z 02011KT 13/M03 A3035 RMK A01 T01281032  RH  033%=      5-min Rain = 0
KSC1 141827Z 01012KT 13/M03 A3035 RMK A01 T01291032  RH  033%=      5-min Rain = 0
KSC1 141828Z 36013KT 13/M03 A3035 RMK A01 T01251034  RH  033%=      5-min Rain = 0
KSC1 141829Z 36012KT 12/M04 A3035 RMK A01 T01211035  RH  034%=      5-min Rain = 0
KSC1 141830Z 00012KT 12/M04 A3035 RMK A01 T01191035  RH  034%=      5-min Rain = 0
KSC1 141831Z 01011G16KT 12/M03 A3035 RMK A01 T01191032  RH  035%=      5-min Rain = 0
KSC1 141832Z 01016KT 12/M03 A3035 RMK A01 T01211034  RH  034%=      5-min Rain = 0
KSC1 141833Z 00010KT 12/M04 A3035 RMK A01 T01191038  RH  033%=      5-min Rain = 0
KSC1 141834Z 02015G21KT 12/M04 A3035 RMK A01 T01201037  RH  033%=      5-min Rain = 0
KSC1 141835Z 02016KT 12/M04 A3035 RMK A01 T01201040  RH  032%=      5-min Rain = 0
KSC1 141836Z 03014KT 12/M04 A3035 RMK A01 T01181042  RH  032%=      5-min Rain = 0
KSC1 141837Z 03014KT 12/M04 A3035 RMK A01 T01181040  RH  033%=      5-min Rain = 0
KSC1 141838Z 03010KT 12/M04 A3035 RMK A01 T01171038  RH  034%=      5-min Rain = 0
KSC1 141839Z 03015KT 12/M04 A3035 RMK A01 T01171038  RH  034%=      5-min Rain = 0
KSC1 141840Z 02013KT 12/M04 A3035 RMK A01 T01161039  RH  034%=      5-min Rain = 0
KSC1 141841Z 03011KT 11/M04 A3035 RMK A01 T01141037  RH  034%=      5-min Rain = 0
KSC1 141842Z 03009KT 11/M04 A3035 RMK A01 T01141037  RH  034%=      5-min Rain = 0
KSC1 141843Z 02008KT 12/M03 A3035 RMK A01 T01161034  RH  035%=      5-min Rain = 0
KSC1 141844Z 02012G17KT 12/M03 A3035 RMK A01 T01201033  RH  034%=      5-min Rain = 0
KSC1 141845Z 02015KT 12/M04 A3035 RMK A01 T01211036  RH  033%=      5-min Rain = 0
KSC1 141846Z 00014KT 12/M04 A3035 RMK A01 T01201040  RH  033%=      5-min Rain = 0
KSC1 141847Z 01014KT 12/M04 A3035 RMK A01 T01191039  RH  033%=      5-min Rain = 0
KSC1 141848Z 00011KT 12/M04 A3035 RMK A01 T01181041  RH  033%=      5-min Rain = 0
KSC1 141849Z 00015KT 12/M04 A3035 RMK A01 T01181040  RH  033%=      5-min Rain = 0
KSC1 141850Z 00015KT 12/M04 A3035 RMK A01 T01181040  RH  033%=      5-min Rain = 0
KSC1 141851Z 35012G17KT 12/M04 A3035 RMK A01 T01181040  RH  033%=      5-min Rain = 0
KSC1 141852Z 01011KT 12/M04 A3035 RMK A01 T01181038  RH  033%=      5-min Rain = 0
KSC1 141853Z 01010G15KT 12/M04 A3035 RMK A01 T01211037  RH  033%=      5-min Rain = 0
KSC1 141854Z 00010G15KT 12/M04 A3035 RMK A01 T01211040  RH  032%=      5-min Rain = 0
KSC1 141855Z 35011KT 12/M04 A3035 RMK A01 T01201040  RH  032%=      5-min Rain = 0
KSC1 141856Z 01012KT 12/M04 A3035 RMK A01 T01201040  RH  033%=      5-min Rain = 0
KSC1 141857Z 02011KT 12/M04 A3035 RMK A01 T01201040  RH  032%=      5-min Rain = 0
KSC1 141858Z 01008KT 12/M04 A3035 RMK A01 T01201041  RH  032%=      5-min Rain = 0
KSC1 141859Z 02012KT 12/M04 A3035 RMK A01 T01231036  RH  033%=      5-min Rain = 0
KSC1 141900Z 02015KT 13/M04 A3035 RMK A01 T01251039  RH  032%=      5-min Rain = 0
KSC1 141901Z 01015KT 12/M04 A3035 RMK A01 T01231041  RH  032%=      5-min Rain = 0
KSC1 141902Z 02010KT 12/M04 A3035 RMK A01 T01201042  RH  032%=      5-min Rain = 0
KSC1 141903Z 00008KT 12/M04 A3035 RMK A01 T01181042  RH  032%=      5-min Rain = 0
KSC1 141904Z 00010KT 12/M04 A3035 RMK A01 T01211039  RH  033%=      5-min Rain = 0
KSC1 141905Z 01011G16KT 12/M04 A3035 RMK A01 T01241037  RH  032%=      5-min Rain = 0
KSC1 141906Z 02012KT 13/M04 A3035 RMK A01 T01261038  RH  032%=      5-min Rain = 0
KSC1 141907Z 03013KT 13/M04 A3035 RMK A01 T01261038  RH  032%=      5-min Rain = 0
KSC1 141908Z 01013KT 13/M04 A3035 RMK A01 T01251039  RH  032%=      5-min Rain = 0
KSC1 141909Z 01009KT 12/M04 A3035 RMK A01 T01231042  RH  031%=      5-min Rain = 0
KSC1 141910Z 02009KT 12/M04 A3034 RMK A01 T01231040  RH  032%=      5-min Rain = 0
KSC1 141911Z 01011G16KT 12/M04 A3034 RMK A01 T01231040  RH  032%=      5-min Rain = 0
KSC1 141912Z 00012G17KT 12/M04 A3034 RMK A01 T01241040  RH  032%=      5-min Rain = 0
KSC1 141913Z 00015KT 13/M04 A3034 RMK A01 T01261038  RH  032%=      5-min Rain = 0
KSC1 141914Z 01013KT 13/M04 A3034 RMK A01 T01251040  RH  031%=      5-min Rain = 0
KSC1 141915Z 00012KT 12/M04 A3034 RMK A01 T01231041  RH  031%=      5-min Rain = 0
KSC1 141916Z 02013G19KT 12/M04 A3034 RMK A01 T01231039  RH  032%=      5-min Rain = 0
KSC1 141917Z 02014KT 13/M04 A3034 RMK A01 T01251040  RH  031%=      5-min Rain = 0
KSC1 141918Z 01014KT 12/M04 A3034 RMK A01 T01231041  RH  032%=      5-min Rain = 0
KSC1 141919Z 01015KT 12/M04 A3034 RMK A01 T01231040  RH  032%=      5-min Rain = 0
KSC1 141920Z 01014KT 12/M04 A3034 RMK A01 T01221042  RH  032%=      5-min Rain = 0
KSC1 141921Z 35013G18KT 12/M04 A3034 RMK A01 T01221040  RH  032%=      5-min Rain = 0
KSC1 141922Z 01011KT 12/M04 A3034 RMK A01 T01241038  RH  032%=      5-min Rain = 0
KSC1 141923Z 36011KT 13/M04 A3034 RMK A01 T01261038  RH  032%=      5-min Rain = 0
KSC1 141924Z 00008KT 13/M04 A3034 RMK A01 T01271038  RH  031%=      5-min Rain = 0
KSC1 141925Z 01011KT 13/M04 A3034 RMK A01 T01291036  RH  032%=      5-min Rain = 0
KSC1 141926Z 01012KT 13/M04 A3034 RMK A01 T01301037  RH  031%=      5-min Rain = 0
KSC1 141927Z 00015KT 13/M04 A3034 RMK A01 T01301037  RH  031%=      5-min Rain = 0
KSC1 141928Z 00013G19KT 13/M04 A3034 RMK A01 T01281039  RH  031%=      5-min Rain = 0
KSC1 141929Z 35011KT 13/M04 A3034 RMK A01 T01271037  RH  032%=      5-min Rain = 0
KSC1 141930Z 35012KT 13/M04 A3034 RMK A01 T01281038  RH  031%=      5-min Rain = 0
KSC1 141931Z 35014KT 13/M04 A3034 RMK A01 T01251040  RH  031%=      5-min Rain = 0
KSC1 141932Z 00009KT 12/M04 A3033 RMK A01 T01241038  RH  032%=      5-min Rain = 0
KSC1 141933Z 00009KT 12/M04 A3033 RMK A01 T01241038  RH  032%=      5-min Rain = 0
KSC1 141934Z 02012KT 13/M04 A3033 RMK A01 T01251035  RH  033%=      5-min Rain = 0
KSC1 141935Z 04012KT 13/M03 A3034 RMK A01 T01281034  RH  032%=      5-min Rain = 0
KSC1 141936Z 01010G15KT 13/M04 A3034 RMK A01 T01291035  RH  032%=      5-min Rain = 0
KSC1 141937Z 35014KT 13/M03 A3034 RMK A01 T01301034  RH  032%=      5-min Rain = 0
KSC1 141938Z 36012KT 13/M04 A3034 RMK A01 T01281036  RH  032%=      5-min Rain = 0
KSC1 141939Z 35013KT 13/M04 A3034 RMK A01 T01251037  RH  032%=      5-min Rain = 0
KSC1 141940Z 00010KT 12/M04 A3034 RMK A01 T01241036  RH  033%=      5-min Rain = 0
KSC1 141941Z 01014KT 12/M03 A3033 RMK A01 T01241034  RH  033%=      5-min Rain = 0
KSC1 141942Z 01014G19KT 13/M03 A3033 RMK A01 T01261034  RH  033%=      5-min Rain = 0
KSC1 141943Z 01014KT 13/M04 A3033 RMK A01 T01271035  RH  032%=      5-min Rain = 0
KSC1 141944Z 02011KT 13/M04 A3033 RMK A01 T01261036  RH  032%=      5-min Rain = 0
KSC1 141945Z 03011KT 13/M04 A3033 RMK A01 T01251037  RH  032%=      5-min Rain = 0
KSC1 141946Z 03009KT 13/M04 A3033 RMK A01 T01251035  RH  033%=      5-min Rain = 0
KSC1 141947Z 04012KT 13/M04 A3033 RMK A01 T01271036  RH  032%=      5-min Rain = 0
KSC1 141948Z 02013G18KT 13/M03 A3033 RMK A01 T01261034  RH  032%=      5-min Rain = 0
KSC1 141949Z 02012KT 13/M03 A3033 RMK A01 T01271033  RH  033%=      5-min Rain = 0
KSC1 141950Z 02011KT 13/M03 A3033 RMK A01 T01271034  RH  032%=      5-min Rain = 0
KSC1 141951Z 01009G17KT 13/M03 A3033 RMK A01 T01281032  RH  033%=      5-min Rain = 0
KSC1 141952Z 00012KT 13/M03 A3033 RMK A01 T01301033  RH  032%=      5-min Rain = 0
KSC1 141953Z 36011KT 13/M03 A3033 RMK A01 T01291034  RH  032%=      5-min Rain = 0
KSC1 141954Z 00015KT 13/M03 A3033 RMK A01 T01271034  RH  032%=      5-min Rain = 0
KSC1 141955Z 34011KT 13/M03 A3033 RMK A01 T01261032  RH  033%=      5-min Rain = 0
KSC1 141956Z 35014G19KT 13/M03 A3033 RMK A01 T01291030  RH  033%=      5-min Rain = 0
KSC1 141957Z 01014KT 13/M03 A3033 RMK A01 T01301032  RH  032%=      5-min Rain = 0
KSC1 141958Z 01011G16KT 13/M03 A3033 RMK A01 T01301032  RH  032%=      5-min Rain = 0
KSC1 141959Z 02012KT 13/M03 A3033 RMK A01 T01311030  RH  032%=      5-min Rain = 0
KSC1 142000Z 02012KT 13/M03 A3033 RMK A01 T01331031  RH  032%=      5-min Rain = 0
KSC1 142001Z 03013KT 13/M03 A3033 RMK A01 T01311034  RH  031%=      5-min Rain = 0
KSC1 142002Z 03013KT 13/M03 A3033 RMK A01 T01291034  RH  032%=      5-min Rain = 0
KSC1 142003Z 02012KT 13/M03 A3033 RMK A01 T01281034  RH  032%=      5-min Rain = 0
KSC1 142004Z 04008KT 13/M03 A3033 RMK A01 T01281031  RH  033%=      5-min Rain = 0
KSC1 142005Z 03010KT 13/M03 A3033 RMK A01 T01301030  RH  033%=      5-min Rain = 0
KSC1 142006Z 01007KT 13/M03 A3033 RMK A01 T01311031  RH  032%=      5-min Rain = 0
KSC1 142007Z 02011G20KT 13/M03 A3033 RMK A01 T01311030  RH  033%=      5-min Rain = 0
KSC1 142008Z 01018KT 13/M03 A3033 RMK A01 T01321030  RH  032%=      5-min Rain = 0
KSC1 142009Z 02014KT 13/M03 A3033 RMK A01 T01291033  RH  032%=      5-min Rain = 0
KSC1 142010Z 36011KT 13/M03 A3033 RMK A01 T01271032  RH  033%=      5-min Rain = 0
KSC1 142011Z 35012KT 13/M03 A3033 RMK A01 T01291029  RH  033%=      5-min Rain = 0
KSC1 142012Z 36015KT 13/M03 A3033 RMK A01 T01301029  RH  033%=      5-min Rain = 0
KSC1 142013Z 36011KT 13/M03 A3033 RMK A01 T01301030  RH  033%=      5-min Rain = 0
KSC1 142014Z 01012G18KT 13/M03 A3033 RMK A01 T01301030  RH  033%=      5-min Rain = 0
KSC1 142015Z 02015KT 13/M03 A3033 RMK A01 T01291031  RH  033%=      5-min Rain = 0
KSC1 142016Z 03012KT 13/M03 A3033 RMK A01 T01281032  RH  033%=      5-min Rain = 0
KSC1 142017Z 03010G17KT 13/M03 A3033 RMK A01 T01281032  RH  033%=      5-min Rain = 0
KSC1 142018Z 01015KT 13/M03 A3033 RMK A01 T01271032  RH  033%=      5-min Rain = 0
KSC1 142019Z 01014KT 13/M03 A3033 RMK A01 T01271032  RH  033%=      5-min Rain = 0
KSC1 142020Z 00012KT 13/M03 A3033 RMK A01 T01271030  RH  033%=      5-min Rain = 0
KSC1 142021Z 03013KT 13/M03 A3033 RMK A01 T01281029  RH  033%=      5-min Rain = 0
KSC1 142022Z 03010KT 13/M03 A3033 RMK A01 T01291029  RH  033%=      5-min Rain = 0
KSC1 142023Z 02010KT 13/M03 A3033 RMK A01 T01291031  RH  033%=      5-min Rain = 0
KSC1 142024Z 02008KT 13/M03 A3033 RMK A01 T01281030  RH  033%=      5-min Rain = 0
KSC1 142025Z 03012KT 13/M03 A3033 RMK A01 T01311027  RH  033%=      5-min Rain = 0
KSC1 142026Z 01012KT 13/M03 A3033 RMK A01 T01341027  RH  033%=      5-min Rain = 0
KSC1 142027Z 02010KT 13/M03 A3033 RMK A01 T01331030  RH  032%=      5-min Rain = 0
KSC1 142028Z 03012G18KT 13/M03 A3033 RMK A01 T01311030  RH  033%=      5-min Rain = 0
KSC1 142029Z 03013G18KT 13/M03 A3033 RMK A01 T01321029  RH  033%=      5-min Rain = 0
KSC1 142030Z 03009KT 13/M03 A3033 RMK A01 T01311030  RH  033%=      5-min Rain = 0
KSC1 142031Z 03010KT 13/M03 A3032 RMK A01 T01311028  RH  033%=      5-min Rain = 0
KSC1 142032Z 02008KT 13/M03 A3032 RMK A01 T01341026  RH  033%=      5-min Rain = 0
KSC1 142033Z 02009KT 14/M03 A3032 RMK A01 T01361027  RH  032%=      5-min Rain = 0
KSC1 142034Z 02011KT 13/M03 A3032 RMK A01 T01341029  RH  032%=      5-min Rain = 0
KSC1 142035Z 02010KT 13/M03 A3032 RMK A01 T01321029  RH  032%=      5-min Rain = 0
KSC1 142036Z 02011KT 13/M03 A3032 RMK A01 T01321028  RH  033%=      5-min Rain = 0
KSC1 142037Z 04012KT 13/M03 A3032 RMK A01 T01321028  RH  033%=      5-min Rain = 0
KSC1 142038Z 05012KT 13/M03 A3032 RMK A01 T01331028  RH  033%=      5-min Rain = 0
KSC1 142039Z 05011KT 13/M03 A3032 RMK A01 T01331028  RH  033%=      5-min Rain = 0
KSC1 142040Z 03011KT 13/M03 A3032 RMK A01 T01331028  RH  033%=      5-min Rain = 0
KSC1 142041Z 01012KT 14/M03 A3032 RMK A01 T01351026  RH  033%=      5-min Rain = 0
KSC1 142042Z 01012KT 14/M03 A3032 RMK A01 T01351028  RH  032%=      5-min Rain = 0
KSC1 142043Z 01013KT 13/M03 A3032 RMK A01 T01321029  RH  033%=      5-min Rain = 0
KSC1 142044Z 01012G17KT 13/M03 A3032 RMK A01 T01311029  RH  033%=      5-min Rain = 0
KSC1 142045Z 00013KT 13/M03 A3032 RMK A01 T01301029  RH  033%=      5-min Rain = 0
KSC1 142046Z 01014G19KT 13/M03 A3032 RMK A01 T01301029  RH  033%=      5-min Rain = 0
KSC1 142047Z 01007KT 13/M03 A3032 RMK A01 T01301027  RH  033%=      5-min Rain = 0
KSC1 142048Z 00011KT 13/M03 A3032 RMK A01 T01321026  RH  033%=      5-min Rain = 0
KSC1 142049Z 01007KT 13/M03 A3032 RMK A01 T01331026  RH  033%=      5-min Rain = 0
KSC1 142050Z 02008G13KT 14/M02 A3032 RMK A01 T01351024  RH  033%=      5-min Rain = 0
KSC1 142051Z 02015KT 14/M02 A3032 RMK A01 T01371024  RH  033%=      5-min Rain = 0
KSC1 142052Z 36014KT 13/M03 A3033 RMK A01 T01341027  RH  032%=      5-min Rain = 0
KSC1 142053Z 36011KT 13/M03 A3032 RMK A01 T01311027  RH  033%=      5-min Rain = 0
KSC1 142054Z 36009KT 13/M03 A3033 RMK A01 T01311025  RH  034%=      5-min Rain = 0
KSC1 142055Z 01008KT 13/M03 A3033 RMK A01 T01311025  RH  034%=      5-min Rain = 0
KSC1 142056Z 00009KT 13/M03 A3032 RMK A01 T01321025  RH  034%=      5-min Rain = 0
KSC1 142057Z 01014KT 13/M03 A3033 RMK A01 T01321025  RH  033%=      5-min Rain = 0
KSC1 142058Z 01014KT 13/M03 A3032 RMK A01 T01311026  RH  033%=      5-min Rain = 0
KSC1 142059Z 02011KT 13/M03 A3033 RMK A01 T01311026  RH  034%=      5-min Rain = 0
KSC1 142100Z 02012KT 13/M03 A3033 RMK A01 T01311025  RH  034%=      5-min Rain = 0
KSC1 142101Z 03012KT 13/M03 A3033 RMK A01 T01301025  RH  034%=      5-min Rain = 0
KSC1 142102Z 03013KT 13/M02 A3033 RMK A01 T01291024  RH  035%=      5-min Rain = 0
KSC1 142103Z 03010KT 13/M02 A3033 RMK A01 T01291024  RH  034%=      5-min Rain = 0
KSC1 142104Z 02007KT 13/M02 A3033 RMK A01 T01291022  RH  035%=      5-min Rain = 0
KSC1 142105Z 01010G15KT 13/M02 A3033 RMK A01 T01321020  RH  035%=      5-min Rain = 0
KSC1 142106Z 01014KT 13/M02 A3033 RMK A01 T01331020  RH  034%=      5-min Rain = 0
KSC1 142107Z 02010KT 13/M02 A3033 RMK A01 T01311022  RH  034%=      5-min Rain = 0
KSC1 142108Z 03010KT 13/M02 A3033 RMK A01 T01301021  RH  035%=      5-min Rain = 0
KSC1 142109Z 03010G15KT 13/M02 A3033 RMK A01 T01301021  RH  035%=      5-min Rain = 0
KSC1 142110Z 02012KT 13/M02 A3033 RMK A01 T01301020  RH  035%=      5-min Rain = 0
KSC1 142111Z 01014G19KT 13/M02 A3033 RMK A01 T01301020  RH  035%=      5-min Rain = 0
KSC1 142112Z 00015KT 13/M02 A3033 RMK A01 T01301020  RH  035%=      5-min Rain = 0
KSC1 142113Z 01014KT 13/M02 A3033 RMK A01 T01291020  RH  036%=      5-min Rain = 0
KSC1 142114Z 02013KT 13/M02 A3033 RMK A01 T01291018  RH  036%=      5-min Rain = 0
KSC1 142115Z 02011KT 13/M02 A3033 RMK A01 T01291018  RH  036%=      5-min Rain = 0
KSC1 142116Z 02010KT 13/M02 A3033 RMK A01 T01291016  RH  036%=      5-min Rain = 0
KSC1 142117Z 02012KT 13/M02 A3033 RMK A01 T01311016  RH  036%=      5-min Rain = 0
KSC1 142118Z 02011KT 13/M02 A3033 RMK A01 T01301017  RH  036%=      5-min Rain = 0
KSC1 142119Z 02008G13KT 13/M02 A3033 RMK A01 T01281018  RH  036%=      5-min Rain = 0
KSC1 142120Z 03007KT 13/M02 A3033 RMK A01 T01271018  RH  037%=      5-min Rain = 0
KSC1 142121Z 03012G17KT 13/M02 A3033 RMK A01 T01271017  RH  037%=      5-min Rain = 0
KSC1 142122Z 03012KT 13/M02 A3033 RMK A01 T01281016  RH  037%=      5-min Rain = 0
KSC1 142123Z 02012KT 13/M02 A3033 RMK A01 T01281016  RH  037%=      5-min Rain = 0
KSC1 142124Z 01009KT 13/M02 A3033 RMK A01 T01291016  RH  037%=      5-min Rain = 0
KSC1 142125Z 01008KT 13/M02 A3033 RMK A01 T01271016  RH  037%=      5-min Rain = 0
KSC1 142126Z 35010KT 13/M02 A3033 RMK A01 T01271015  RH  037%=      5-min Rain = 0
KSC1 142127Z 00007KT 13/M02 A3033 RMK A01 T01261016  RH  037%=      5-min Rain = 0
KSC1 142128Z 01006KT 13/M01 A3033 RMK A01 T01271014  RH  038%=      5-min Rain = 0
KSC1 142129Z 01013KT 13/M01 A3033 RMK A01 T01301012  RH  038%=      5-min Rain = 0
KSC1 142130Z 36010G15KT 13/M01 A3033 RMK A01 T01311012  RH  037%=      5-min Rain = 0
KSC1 142131Z 00014KT 13/M01 A3033 RMK A01 T01311011  RH  037%=      5-min Rain = 0
KSC1 142132Z 01014KT 13/M01 A3033 RMK A01 T01301013  RH  037%=      5-min Rain = 0
KSC1 142133Z 00011KT 13/M01 A3033 RMK A01 T01281014  RH  037%=      5-min Rain = 0
KSC1 142134Z 02008KT 13/M01 A3033 RMK A01 T01261014  RH  038%=      5-min Rain = 0
KSC1 142135Z 01010KT 13/M01 A3033 RMK A01 T01261014  RH  038%=      5-min Rain = 0
KSC1 142136Z 00010KT 13/M01 A3033 RMK A01 T01271013  RH  038%=      5-min Rain = 0
KSC1 142137Z 35010KT 13/M01 A3033 RMK A01 T01261013  RH  038%=      5-min Rain = 0
KSC1 142138Z 36009KT 13/M01 A3033 RMK A01 T01271013  RH  038%=      5-min Rain = 0
KSC1 142139Z 00010KT 13/M01 A3033 RMK A01 T01261013  RH  038%=      5-min Rain = 0
KSC1 142140Z 35009KT 13/M01 A3033 RMK A01 T01261013  RH  038%=      5-min Rain = 0
KSC1 142141Z 36007KT 13/M01 A3033 RMK A01 T01261013  RH  038%=      5-min Rain = 0
KSC1 142142Z 03007KT 13/M01 A3033 RMK A01 T01281011  RH  038%=      5-min Rain = 0
KSC1 142143Z 03011KT 13/M01 A3033 RMK A01 T01301011  RH  038%=      5-min Rain = 0
KSC1 142144Z 01011KT 13/M01 A3033 RMK A01 T01291013  RH  037%=      5-min Rain = 0
KSC1 142145Z 00011G16KT 13/M01 A3033 RMK A01 T01281012  RH  038%=      5-min Rain = 0
KSC1 142146Z 01011KT 13/M01 A3033 RMK A01 T01271012  RH  038%=      5-min Rain = 0
KSC1 142147Z 01010KT 13/M01 A3033 RMK A01 T01261013  RH  038%=      5-min Rain = 0
KSC1 142148Z 36012KT 13/M01 A3033 RMK A01 T01261013  RH  038%=      5-min Rain = 0
KSC1 142149Z 36007KT 13/M01 A3033 RMK A01 T01251012  RH  038%=      5-min Rain = 0
KSC1 142150Z 00009KT 13/M01 A3033 RMK A01 T01251012  RH  039%=      5-min Rain = 0
KSC1 142151Z 01010KT 13/M01 A3033 RMK A01 T01261012  RH  038%=      5-min Rain = 0
KSC1 142152Z 01011KT 13/M01 A3033 RMK A01 T01261013  RH  038%=      5-min Rain = 0
KSC1 142153Z 00011KT 13/M01 A3033 RMK A01 T01261012  RH  038%=      5-min Rain = 0
KSC1 142154Z 35010KT 13/M01 A3033 RMK A01 T01271012  RH  038%=      5-min Rain = 0
KSC1 142155Z 00011KT 13/M01 A3033 RMK A01 T01281012  RH  038%=      5-min Rain = 0
KSC1 142156Z 36013KT 13/M01 A3033 RMK A01 T01281012  RH  038%=      5-min Rain = 0
KSC1 142157Z 01011KT 13/M01 A3033 RMK A01 T01271013  RH  038%=      5-min Rain = 0
KSC1 142158Z 03009KT 13/M01 A3033 RMK A01 T01261012  RH  038%=      5-min Rain = 0
KSC1 142159Z 01006KT 13/M01 A3033 RMK A01 T01261014  RH  038%=      5-min Rain = 0
KSC1 142200Z 00008KT 13/M01 A3033 RMK A01 T01261013  RH  038%=      5-min Rain = 0
KSC1 142201Z 02011G18KT 13/M01 A3033 RMK A01 T01271012  RH  038%=      5-min Rain = 0
KSC1 142202Z 03012G17KT 13/M01 A3033 RMK A01 T01271014  RH  037%=      5-min Rain = 0
KSC1 142203Z 03011KT 13/M02 A3033 RMK A01 T01271015  RH  037%=      5-min Rain = 0
KSC1 142204Z 03009KT 13/M02 A3033 RMK A01 T01261015  RH  037%=      5-min Rain = 0
KSC1 142205Z 03008KT 13/M02 A3033 RMK A01 T01261015  RH  037%=      5-min Rain = 0
KSC1 142206Z 03009KT 13/M02 A3033 RMK A01 T01261016  RH  038%=      5-min Rain = 0
KSC1 142207Z 03008KT 13/M02 A3033 RMK A01 T01251015  RH  038%=      5-min Rain = 0
KSC1 142208Z 00008KT 13/M01 A3033 RMK A01 T01261014  RH  038%=      5-min Rain = 0
KSC1 142209Z 02008KT 13/M01 A3033 RMK A01 T01271014  RH  038%=      5-min Rain = 0
KSC1 142210Z 03010KT 13/M01 A3033 RMK A01 T01271014  RH  038%=      5-min Rain = 0
KSC1 142211Z 03012KT 13/M01 A3033 RMK A01 T01281013  RH  038%=      5-min Rain = 0
KSC1 142212Z 03010KT 13/M02 A3033 RMK A01 T01261015  RH  037%=      5-min Rain = 0
KSC1 142213Z 04010KT 13/M02 A3033 RMK A01 T01251015  RH  038%=      5-min Rain = 0
KSC1 142214Z 04012KT 13/M01 A3033 RMK A01 T01251014  RH  038%=      5-min Rain = 0
KSC1 142215Z 02010KT 12/M02 A3033 RMK A01 T01241015  RH  038%=      5-min Rain = 0
KSC1 142216Z 03010KT 12/M02 A3033 RMK A01 T01241015  RH  038%=      5-min Rain = 0
KSC1 142217Z 02009KT 12/M02 A3033 RMK A01 T01231016  RH  038%=      5-min Rain = 0
KSC1 142218Z 04008KT 12/M02 A3033 RMK A01 T01231016  RH  038%=      5-min Rain = 0
KSC1 142219Z 03009KT 12/M01 A3033 RMK A01 T01241014  RH  038%=      5-min Rain = 0
KSC1 142220Z 02013G19KT 13/M02 A3034 RMK A01 T01251015  RH  038%=      5-min Rain = 0
KSC1 142221Z 03011KT 12/M02 A3033 RMK A01 T01241016  RH  038%=      5-min Rain = 0
KSC1 142222Z 01012KT 12/M02 A3033 RMK A01 T01231016  RH  038%=      5-min Rain = 0
KSC1 142223Z 01012KT 12/M02 A3033 RMK A01 T01231016  RH  038%=      5-min Rain = 0
KSC1 142224Z 01009KT 12/M02 A3033 RMK A01 T01231017  RH  038%=      5-min Rain = 0
KSC1 142225Z 00010G15KT 12/M02 A3033 RMK A01 T01231016  RH  038%=      5-min Rain = 0
KSC1 142226Z 01014KT 12/M02 A3033 RMK A01 T01231016  RH  038%=      5-min Rain = 0
KSC1 142227Z 01013KT 12/M02 A3033 RMK A01 T01231017  RH  038%=      5-min Rain = 0
KSC1 142228Z 01011KT 12/M02 A3034 RMK A01 T01221017  RH  038%=      5-min Rain = 0
KSC1 142229Z 02009KT 12/M02 A3034 RMK A01 T01221017  RH  038%=      5-min Rain = 0
KSC1 142230Z 03009KT 12/M02 A3034 RMK A01 T01221017  RH  038%=      5-min Rain = 0
KSC1 142231Z 02009KT 12/M02 A3034 RMK A01 T01221017  RH  038%=      5-min Rain = 0
KSC1 142232Z 02009KT 12/M02 A3034 RMK A01 T01221017  RH  038%=      5-min Rain = 0
KSC1 142233Z 03011KT 12/M02 A3034 RMK A01 T01221017  RH  038%=      5-min Rain = 0
KSC1 142234Z 02008KT 12/M02 A3034 RMK A01 T01221018  RH  038%=      5-min Rain = 0
KSC1 142235Z 03007KT 12/M02 A3034 RMK A01 T01221017  RH  038%=      5-min Rain = 0
KSC1 142236Z 03007KT 12/M02 A3034 RMK A01 T01221017  RH  038%=      5-min Rain = 0
KSC1 142237Z 03007KT 12/M02 A3034 RMK A01 T01221016  RH  038%=      5-min Rain = 0
KSC1 142238Z 01007KT 12/M02 A3034 RMK A01 T01231016  RH  038%=      5-min Rain = 0
KSC1 142239Z 01010KT 12/M02 A3034 RMK A01 T01231016  RH  038%=      5-min Rain = 0
KSC1 142240Z 02009KT 12/M02 A3034 RMK A01 T01231018  RH  037%=      5-min Rain = 0
KSC1 142241Z 03008KT 12/M02 A3034 RMK A01 T01231018  RH  037%=      5-min Rain = 0
KSC1 142242Z 03006KT 12/M02 A3034 RMK A01 T01221018  RH  038%=      5-min Rain = 0
KSC1 142243Z 01007KT 12/M02 A3034 RMK A01 T01231017  RH  038%=      5-min Rain = 0
KSC1 142244Z 03010KT 12/M02 A3034 RMK A01 T01231017  RH  038%=      5-min Rain = 0
KSC1 142245Z 03009KT 12/M02 A3034 RMK A01 T01221019  RH  038%=      5-min Rain = 0
KSC1 142246Z 02006KT 12/M02 A3034 RMK A01 T01211018  RH  038%=      5-min Rain = 0
KSC1 142247Z 02006KT 12/M02 A3034 RMK A01 T01211017  RH  038%=      5-min Rain = 0
KSC1 142248Z 02006KT 12/M02 A3034 RMK A01 T01211017  RH  038%=      5-min Rain = 0
KSC1 142249Z 02010KT 12/M02 A3034 RMK A01 T01221018  RH  038%=      5-min Rain = 0
KSC1 142250Z 02009KT 12/M02 A3035 RMK A01 T01221018  RH  038%=      5-min Rain = 0
KSC1 142251Z 03010KT 12/M02 A3035 RMK A01 T01211018  RH  038%=      5-min Rain = 0
KSC1 142252Z 04010KT 12/M02 A3035 RMK A01 T01201019  RH  038%=      5-min Rain = 0
KSC1 142253Z 03009KT 12/M02 A3035 RMK A01 T01201018  RH  038%=      5-min Rain = 0
KSC1 142254Z 02007G12KT 12/M02 A3035 RMK A01 T01191019  RH  038%=      5-min Rain = 0
KSC1 142255Z 00011KT 12/M02 A3035 RMK A01 T01191019  RH  038%=      5-min Rain = 0
KSC1 142256Z 01010KT 12/M02 A3035 RMK A01 T01191019  RH  038%=      5-min Rain = 0
KSC1 142257Z 00009KT 12/M02 A3035 RMK A01 T01191019  RH  038%=      5-min Rain = 0
KSC1 142258Z 00010KT 12/M02 A3035 RMK A01 T01181019  RH  038%=      5-min Rain = 0
KSC1 142259Z 01009KT 12/M02 A3035 RMK A01 T01181019  RH  039%=      5-min Rain = 0
KSC1 142300Z 02006KT 12/M02 A3035 RMK A01 T01181019  RH  039%=      5-min Rain = 0
KSC1 142301Z 02006KT 12/M02 A3035 RMK A01 T01171019  RH  039%=      5-min Rain = 0
KSC1 142302Z 03007KT 12/M02 A3035 RMK A01 T01171019  RH  039%=      5-min Rain = 0
KSC1 142303Z 04009KT 12/M02 A3035 RMK A01 T01171019  RH  039%=      5-min Rain = 0
KSC1 142304Z 02008KT 12/M02 A3035 RMK A01 T01171019  RH  039%=      5-min Rain = 0
KSC1 142305Z 03009KT 12/M02 A3035 RMK A01 T01171019  RH  039%=      5-min Rain = 0
KSC1 142306Z 02009KT 12/M02 A3035 RMK A01 T01161019  RH  039%=      5-min Rain = 0
KSC1 142307Z 01008G13KT 12/M02 A3035 RMK A01 T01161019  RH  039%=      5-min Rain = 0
KSC1 142308Z 02009KT 12/M02 A3035 RMK A01 T01161020  RH  039%=      5-min Rain = 0
KSC1 142309Z 02008KT 12/M02 A3036 RMK A01 T01151020  RH  039%=      5-min Rain = 0
KSC1 142310Z 02011KT 12/M02 A3036 RMK A01 T01151020  RH  039%=      5-min Rain = 0
KSC1 142311Z 01008KT 11/M02 A3036 RMK A01 T01141021  RH  039%=      5-min Rain = 0
KSC1 142312Z 02008KT 11/M02 A3036 RMK A01 T01141020  RH  039%=      5-min Rain = 0
KSC1 142313Z 01008KT 11/M02 A3036 RMK A01 T01141020  RH  039%=      5-min Rain = 0
KSC1 142314Z 02010KT 11/M02 A3036 RMK A01 T01131020  RH  039%=      5-min Rain = 0
KSC1 142315Z 01009G14KT 11/M02 A3036 RMK A01 T01131020  RH  039%=      5-min Rain = 0
KSC1 142316Z 01009KT 11/M02 A3036 RMK A01 T01121020  RH  040%=      5-min Rain = 0
KSC1 142317Z 02011KT 11/M02 A3036 RMK A01 T01121020  RH  040%=      5-min Rain = 0
KSC1 142318Z 02010KT 11/M02 A3036 RMK A01 T01121020  RH  040%=      5-min Rain = 0
KSC1 142319Z 02007KT 11/M02 A3036 RMK A01 T01111020  RH  040%=      5-min Rain = 0
KSC1 142320Z 02007KT 11/M02 A3036 RMK A01 T01111019  RH  040%=      5-min Rain = 0
KSC1 142321Z 01008KT 11/M02 A3035 RMK A01 T01101020  RH  040%=      5-min Rain = 0
KSC1 142322Z 01009KT 11/M02 A3036 RMK A01 T01101020  RH  040%=      5-min Rain = 0
KSC1 142323Z 01010KT 11/M02 A3035 RMK A01 T01091020  RH  041%=      5-min Rain = 0
KSC1 142324Z 01010KT 11/M02 A3036 RMK A01 T01091019  RH  041%=      5-min Rain = 0
KSC1 142325Z 01009KT 11/M02 A3036 RMK A01 T01091019  RH  041%=      5-min Rain = 0
KSC1 142326Z 02008KT 11/M02 A3036 RMK A01 T01091019  RH  041%=      5-min Rain = 0
KSC1 142327Z 02007KT 11/M02 A3036 RMK A01 T01081019  RH  041%=      5-min Rain = 0
KSC1 142328Z 01007KT 11/M02 A3036 RMK A01 T01071019  RH  041%=      5-min Rain = 0
KSC1 142329Z 02006KT 11/M02 A3036 RMK A01 T01061019  RH  042%=      5-min Rain = 0
KSC1 142330Z 02008KT 11/M02 A3036 RMK A01 T01061019  RH  042%=      5-min Rain = 0
KSC1 142331Z 02006KT 11/M02 A3036 RMK A01 T01051019  RH  042%=      5-min Rain = 0
KSC1 142332Z 02009KT 11/M02 A3036 RMK A01 T01051019  RH  042%=      5-min Rain = 0
KSC1 142333Z 02008KT 11/M02 A3036 RMK A01 T01051019  RH  042%=      5-min Rain = 0
KSC1 142334Z 02007KT 11/M02 A3036 RMK A01 T01051019  RH  042%=      5-min Rain = 0
KSC1 142335Z 01007KT 11/M02 A3036 RMK A01 T01051018  RH  042%=      5-min Rain = 0
KSC1 142336Z 02007KT 10/M02 A3036 RMK A01 T01041018  RH  042%=      5-min Rain = 0
KSC1 142337Z 02008KT 10/M02 A3036 RMK A01 T01031018  RH  043%=      5-min Rain = 0
KSC1 142338Z 01006KT 10/M02 A3036 RMK A01 T01031018  RH  043%=      5-min Rain = 0
KSC1 142339Z 02006KT 10/M02 A3036 RMK A01 T01021018  RH  043%=      5-min Rain = 0
KSC1 142340Z 02006KT 10/M02 A3036 RMK A01 T01021018  RH  043%=      5-min Rain = 0
KSC1 142341Z 02005KT 10/M02 A3036 RMK A01 T01011018  RH  043%=      5-min Rain = 0
KSC1 142342Z 02004KT 10/M02 A3036 RMK A01 T01001018  RH  044%=      5-min Rain = 0
KSC1 142343Z 02005KT 10/M02 A3036 RMK A01 T00991018  RH  044%=      5-min Rain = 0
KSC1 142344Z 02005KT 10/M02 A3036 RMK A01 T00981017  RH  044%=      5-min Rain = 0
KSC1 142345Z 02005KT 10/M02 A3036 RMK A01 T00971018  RH  045%=      5-min Rain = 0
KSC1 142346Z 01005KT 10/M02 A3036 RMK A01 T00961017  RH  045%=      5-min Rain = 0
KSC1 142347Z 01005KT 10/M02 A3036 RMK A01 T00961017  RH  045%=      5-min Rain = 0
KSC1 142348Z 01005KT 10/M02 A3036 RMK A01 T00961017  RH  045%=      5-min Rain = 0
KSC1 142349Z 01005KT 10/M02 A3036 RMK A01 T00951016  RH  046%=      5-min Rain = 0
KSC1 142350Z 01004KT 10/M02 A3036 RMK A01 T00951017  RH  046%=      5-min Rain = 0
KSC1 142351Z 01005KT 09/M02 A3036 RMK A01 T00941016  RH  046%=      5-min Rain = 0
KSC1 142352Z 00004KT 09/M02 A3036 RMK A01 T00931016  RH  046%=      5-min Rain = 0
KSC1 142353Z 00004KT 09/M02 A3037 RMK A01 T00931016  RH  046%=      5-min Rain = 0
KSC1 142354Z 00005KT 09/M02 A3037 RMK A01 T00921016  RH  047%=      5-min Rain = 0
KSC1 142355Z 01005KT 09/M02 A3037 RMK A01 T00911016  RH  047%=      5-min Rain = 0
KSC1 142356Z 01005KT 09/M02 A3037 RMK A01 T00911016  RH  047%=      5-min Rain = 0
KSC1 142357Z 01005KT 09/M02 A3037 RMK A01 T00911016  RH  047%=      5-min Rain = 0
KSC1 142358Z 01004KT 09/M02 A3037 RMK A01 T00901016  RH  047%=      5-min Rain = 0
KSC1 142359Z 01005KT 09/M02 A3037 RMK A01 T00891016  RH  048%=      5-min Rain = 0
KSC1 150000Z 00005KT 09/M02 A3037 RMK A01 T00891016  RH  048%=      5-min Rain = 0
KSC1 150001Z 01005KT 09/M02 A3037 RMK A01 T00881016  RH  048%=      5-min Rain = 0
KSC1 150002Z 00005KT 09/M02 A3037 RMK A01 T00881015  RH  048%=      5-min Rain = 0
KSC1 150003Z 01004KT 09/M02 A3037 RMK A01 T00871016  RH  048%=      5-min Rain = 0
KSC1 150004Z 00004KT 09/M02 A3037 RMK A01 T00871015  RH  049%=      5-min Rain = 0
KSC1 150005Z 36004KT 09/M02 A3037 RMK A01 T00861015  RH  049%=      5-min Rain = 0
KSC1 150006Z 00004KT 09/M02 A3037 RMK A01 T00861015  RH  049%=      5-min Rain = 0
KSC1 150007Z 00004KT 09/M02 A3037 RMK A01 T00851016  RH  049%=      5-min Rain = 0
KSC1 150008Z 00004KT 09/M02 A3037 RMK A01 T00851016  RH  049%=      5-min Rain = 0
KSC1 150009Z 36004KT 09/M02 A3037 RMK A01 T00851016  RH  049%=      5-min Rain = 0
KSC1 150010Z 00004KT 08/M02 A3037 RMK A01 T00841016  RH  049%=      5-min Rain = 0
KSC1 150011Z 00004KT 08/M02 A3037 RMK A01 T00841016  RH  050%=      5-min Rain = 0
KSC1 150012Z 36004KT 08/M02 A3037 RMK A01 T00841016  RH  050%=      5-min Rain = 0
KSC1 150013Z 00005KT 08/M02 A3037 RMK A01 T00831016  RH  050%=      5-min Rain = 0
KSC1 150014Z 00005KT 08/M02 A3038 RMK A01 T00821016  RH  050%=      5-min Rain = 0
KSC1 150015Z 00005KT 08/M02 A3038 RMK A01 T00811016  RH  050%=      5-min Rain = 0
KSC1 150016Z 00004KT 08/M02 A3038 RMK A01 T00811016  RH  050%=      5-min Rain = 0
KSC1 150017Z 00005KT 08/M02 A3038 RMK A01 T00801016  RH  051%=      5-min Rain = 0
KSC1 150018Z 36004KT 08/M02 A3038 RMK A01 T00801016  RH  051%=      5-min Rain = 0
KSC1 150019Z 36004KT 08/M02 A3038 RMK A01 T00801016  RH  051%=      5-min Rain = 0
KSC1 150020Z 36004KT 08/M02 A3038 RMK A01 T00791016  RH  051%=      5-min Rain = 0
KSC1 150021Z 36004KT 08/M02 A3038 RMK A01 T00781016  RH  051%=      5-min Rain = 0
KSC1 150022Z 36004KT 08/M02 A3038 RMK A01 T00771016  RH  052%=      5-min Rain = 0
KSC1 150023Z 00004KT 08/M02 A3038 RMK A01 T00771016  RH  052%=      5-min Rain = 0
KSC1 150024Z 00004KT 08/M02 A3038 RMK A01 T00771016  RH  052%=      5-min Rain = 0
KSC1 150025Z 36004KT 08/M02 A3038 RMK A01 T00761016  RH  052%=      5-min Rain = 0
KSC1 150026Z 35004KT 08/M02 A3038 RMK A01 T00761016  RH  052%=      5-min Rain = 0
KSC1 150027Z 35004KT 08/M02 A3038 RMK A01 T00751016  RH  052%=      5-min Rain = 0
KSC1 150028Z 35004KT 08/M02 A3038 RMK A01 T00751016  RH  053%=      5-min Rain = 0
KSC1 150029Z 35004KT 07/M02 A3038 RMK A01 T00741016  RH  053%=      5-min Rain = 0
KSC1 150030Z 35004KT 07/M02 A3038 RMK A01 T00741016  RH  053%=      5-min Rain = 0
KSC1 150031Z 35004KT 07/M02 A3038 RMK A01 T00731016  RH  053%=      5-min Rain = 0
KSC1 150032Z 35004KT 07/M02 A3038 RMK A01 T00731016  RH  053%=      5-min Rain = 0
KSC1 150033Z 35004KT 07/M02 A3038 RMK A01 T00731016  RH  053%=      5-min Rain = 0
KSC1 150034Z 35004KT 07/M02 A3039 RMK A01 T00721016  RH  053%=      5-min Rain = 0
KSC1 150035Z 34003KT 07/M02 A3039 RMK A01 T00721016  RH  054%=      5-min Rain = 0
KSC1 150036Z 33003KT 07/M02 A3039 RMK A01 T00711016  RH  054%=      5-min Rain = 0
KSC1 150037Z 34004KT 07/M02 A3039 RMK A01 T00701016  RH  054%=      5-min Rain = 0
KSC1 150038Z 34004KT 07/M02 A3039 RMK A01 T00701016  RH  054%=      5-min Rain = 0
KSC1 150039Z 34003KT 07/M02 A3039 RMK A01 T00691016  RH  055%=      5-min Rain = 0
KSC1 150040Z 34003KT 07/M02 A3039 RMK A01 T00691016  RH  055%=      5-min Rain = 0
KSC1 150041Z 34003KT 07/M02 A3039 RMK A01 T00681016  RH  055%=      5-min Rain = 0
KSC1 150042Z 34004KT 07/M02 A3039 RMK A01 T00671016  RH  055%=      5-min Rain = 0
KSC1 150043Z 35004KT 07/M02 A3039 RMK A01 T00671017  RH  055%=      5-min Rain = 0
KSC1 150044Z 35004KT 07/M02 A3039 RMK A01 T00661017  RH  056%=      5-min Rain = 0
KSC1 150045Z 35004KT 07/M02 A3039 RMK A01 T00651017  RH  056%=      5-min Rain = 0
KSC1 150046Z 35004KT 06/M02 A3039 RMK A01 T00641017  RH  056%=      5-min Rain = 0
KSC1 150047Z 34003KT 06/M02 A3039 RMK A01 T00641016  RH  056%=      5-min Rain = 0
KSC1 150048Z 34003KT 06/M02 A3039 RMK A01 T00641016  RH  056%=      5-min Rain = 0
KSC1 150049Z 35003KT 06/M02 A3039 RMK A01 T00641017  RH  056%=      5-min Rain = 0
KSC1 150050Z 35003KT 07/M02 A3039 RMK A01 T00651016  RH  056%=      5-min Rain = 0
KSC1 150051Z 34003KT 06/M02 A3039 RMK A01 T00641017  RH  056%=      5-min Rain = 0
KSC1 150052Z 34003KT 06/M02 A3039 RMK A01 T00641016  RH  056%=      5-min Rain = 0
KSC1 150053Z 34004KT 06/M02 A3039 RMK A01 T00641017  RH  057%=      5-min Rain = 0
KSC1 150054Z 34003KT 06/M02 A3039 RMK A01 T00621017  RH  057%=      5-min Rain = 0
KSC1 150055Z 33003KT 06/M02 A3039 RMK A01 T00591019  RH  057%=      5-min Rain = 0
KSC1 150056Z 33003KT 06/M02 A3039 RMK A01 T00551020  RH  058%=      5-min Rain = 0
KSC1 150057Z 33003KT 05/M02 A3039 RMK A01 T00521021  RH  060%=      5-min Rain = 0
KSC1 150058Z 33003KT 05/M02 A3039 RMK A01 T00481021  RH  061%=      5-min Rain = 0
KSC1 150059Z 34004KT 05/M02 A3039 RMK A01 T00451021  RH  062%=      5-min Rain = 0
KSC1 150100Z 34004KT 05/M02 A3039 RMK A01 T00451019  RH  063%=      5-min Rain = 0
KSC1 150101Z 34003KT 05/M02 A3039 RMK A01 T00451019  RH  063%=      5-min Rain = 0
KSC1 150102Z 34004KT 04/M02 A3039 RMK A01 T00421021  RH  064%=      5-min Rain = 0
KSC1 150103Z 34004KT 04/M02 A3039 RMK A01 T00401021  RH  065%=      5-min Rain = 0
KSC1 150104Z 34004KT 04/M02 A3039 RMK A01 T00381021  RH  066%=      5-min Rain = 0
KSC1 150105Z 34004KT 04/M02 A304 RMK A01 T00371019  RH  067%=      5-min Rain = 0
KSC1 150106Z 34004KT 04/M02 A304 RMK A01 T00381018  RH  067%=      5-min Rain = 0
KSC1 150107Z 34004KT 04/M02 A304 RMK A01 T00401017  RH  067%=      5-min Rain = 0
KSC1 150108Z 35004KT 04/M02 A304 RMK A01 T00411016  RH  066%=      5-min Rain = 0
KSC1 150109Z 35004KT 04/M02 A304 RMK A01 T00421016  RH  066%=      5-min Rain = 0
KSC1 150110Z 35004KT 04/M02 A304 RMK A01 T00431016  RH  065%=      5-min Rain = 0
KSC1 150111Z 35004KT 04/M02 A304 RMK A01 T00441016  RH  065%=      5-min Rain = 0
KSC1 150112Z 35004KT 05/M02 A304 RMK A01 T00451016  RH  065%=      5-min Rain = 0
KSC1 150113Z 35004KT 05/M02 A304 RMK A01 T00471015  RH  064%=      5-min Rain = 0
KSC1 150114Z 35003KT 05/M02 A304 RMK A01 T00481015  RH  064%=      5-min Rain = 0
KSC1 150115Z 34003KT 05/M02 A304 RMK A01 T00491015  RH  063%=      5-min Rain = 0
KSC1 150116Z 34003KT 05/M02 A304 RMK A01 T00491016  RH  063%=      5-min Rain = 0
KSC1 150117Z 34002KT 05/M02 A304 RMK A01 T00461018  RH  063%=      5-min Rain = 0
KSC1 150118Z 33002KT 04/M02 A304 RMK A01 T00421021  RH  064%=      5-min Rain = 0
KSC1 150119Z 33001KT 04/M02 A304 RMK A01 T00371023  RH  065%=      5-min Rain = 0
KSC1 150120Z 32002KT 03/M02 A304 RMK A01 T00341023  RH  067%=      5-min Rain = 0
KSC1 150121Z 31002KT 03/M02 A304 RMK A01 T00331021  RH  068%=      5-min Rain = 0
KSC1 150122Z 31001KT 03/M02 A304 RMK A01 T00331021  RH  068%=      5-min Rain = 0
KSC1 150123Z 31000KT 03/M02 A304 RMK A01 T00301023  RH  068%=      5-min Rain = 0
KSC1 150124Z 31001KT 03/M03 A304 RMK A01 T00271025  RH  069%=      5-min Rain = 0
KSC1 150125Z 31001KT 03/M02 A304 RMK A01 T00281020  RH  071%=      5-min Rain = 0
KSC1 150126Z 31001KT 03/M02 A304 RMK A01 T00331016  RH  070%=      5-min Rain = 0
KSC1 150127Z 31002KT 04/M02 A304 RMK A01 T00351018  RH  068%=      5-min Rain = 0
KSC1 150128Z 31002KT 03/M02 A304 RMK A01 T00341020  RH  068%=      5-min Rain = 0
KSC1 150129Z 31001KT 03/M02 A304 RMK A01 T00311024  RH  067%=      5-min Rain = 0
KSC1 150130Z 31001KT 03/M03 A304 RMK A01 T00271026  RH  068%=      5-min Rain = 0
KSC1 150131Z 31001KT 02/M03 A304 RMK A01 T00241027  RH  069%=      5-min Rain = 0
KSC1 150132Z 32001KT 02/M03 A304 RMK A01 T00201026  RH  071%=      5-min Rain = 0
KSC1 150133Z 32001KT 02/M02 A304 RMK A01 T00201023  RH  073%=      5-min Rain = 0
KSC1 150134Z 32001KT 02/M02 A304 RMK A01 T00211022  RH  073%=      5-min Rain = 0
KSC1 150135Z 32002KT 02/M02 A304 RMK A01 T00201023  RH  073%=      5-min Rain = 0
KSC1 150136Z 32002KT 02/M02 A304 RMK A01 T00191023  RH  074%=      5-min Rain = 0
KSC1 150137Z 33002KT 02/M02 A304 RMK A01 T00181023  RH  074%=      5-min Rain = 0
KSC1 150138Z 33002KT 02/M02 A304 RMK A01 T00161024  RH  075%=      5-min Rain = 0
KSC1 150139Z 33002KT 02/M02 A304 RMK A01 T00151024  RH  075%=      5-min Rain = 0
KSC1 150140Z 33001KT 01/M03 A304 RMK A01 T00141025  RH  076%=      5-min Rain = 0
KSC1 150141Z 33001KT 01/M02 A304 RMK A01 T00131024  RH  076%=      5-min Rain = 0
KSC1 150142Z 33001KT 01/M02 A3041 RMK A01 T00121024  RH  077%=      5-min Rain = 0
KSC1 150143Z 33001KT 01/M02 A3041 RMK A01 T00131020  RH  078%=      5-min Rain = 0
KSC1 150144Z 33001KT 02/M02 A3041 RMK A01 T00161020  RH  077%=      5-min Rain = 0
KSC1 150145Z 30001KT 01/M02 A3041 RMK A01 T00141023  RH  076%=      5-min Rain = 0
KSC1 150146Z 26001KT 01/M02 A3041 RMK A01 T00131022  RH  077%=      5-min Rain = 0
KSC1 150147Z 26001KT 02/M02 A3041 RMK A01 T00171018  RH  078%=      5-min Rain = 0
KSC1 150148Z 25002KT 02/M02 A3041 RMK A01 T00181020  RH  076%=      5-min Rain = 0
KSC1 150149Z 24002KT 02/M02 A3041 RMK A01 T00161024  RH  075%=      5-min Rain = 0
KSC1 150150Z 23002KT 01/M03 A3041 RMK A01 T00131026  RH  075%=      5-min Rain = 0
KSC1 150151Z 23002KT 01/M03 A3041 RMK A01 T00111025  RH  077%=      5-min Rain = 0
KSC1 150152Z 24002KT 01/M02 A3041 RMK A01 T00111024  RH  078%=      5-min Rain = 0
KSC1 150153Z 24002KT 01/M02 A3041 RMK A01 T00111023  RH  078%=      5-min Rain = 0
KSC1 150154Z 25002KT 01/M02 A3041 RMK A01 T00111023  RH  078%=      5-min Rain = 0
KSC1 150155Z 26002KT 01/M02 A3041 RMK A01 T00111024  RH  078%=      5-min Rain = 0
KSC1 150156Z 27002KT 01/M03 A3041 RMK A01 T00091025  RH  078%=      5-min Rain = 0
KSC1 150157Z 28002KT 01/M02 A3041 RMK A01 T00091024  RH  079%=      5-min Rain = 0
KSC1 150158Z 28002KT 01/M02 A3041 RMK A01 T00091023  RH  079%=      5-min Rain = 0
KSC1 150159Z 29002KT 01/M03 A3041 RMK A01 T00081025  RH  079%=      5-min Rain = 0
KSC1 150200Z 30001KT 01/M02 A3041 RMK A01 T00111018  RH  081%=      5-min Rain = 0
KSC1 150201Z 28002KT 02/M02 A3041 RMK A01 T00151017  RH  079%=      5-min Rain = 0
KSC1 150202Z 26002KT 02/M02 A3041 RMK A01 T00161020  RH  077%=      5-min Rain = 0
KSC1 150203Z 26002KT 02/M02 A3041 RMK A01 T00151023  RH  076%=      5-min Rain = 0
KSC1 150204Z 27002KT 01/M02 A3041 RMK A01 T00141022  RH  077%=      5-min Rain = 0
KSC1 150205Z 27003KT 01/M02 A3041 RMK A01 T00141021  RH  078%=      5-min Rain = 0
KSC1 150206Z 27003KT 01/M02 A3042 RMK A01 T00141022  RH  077%=      5-min Rain = 0
KSC1 150207Z 27003KT 01/M02 A3042 RMK A01 T00131022  RH  077%=      5-min Rain = 0
KSC1 150208Z 27002KT 01/M02 A3042 RMK A01 T00121022  RH  078%=      5-min Rain = 0
KSC1 150209Z 27003KT 01/M02 A3042 RMK A01 T00131021  RH  078%=      5-min Rain = 0
KSC1 150210Z 26003KT 01/M02 A3042 RMK A01 T00141020  RH  078%=      5-min Rain = 0
KSC1 150211Z 26003KT 02/M02 A3042 RMK A01 T00151021  RH  077%=      5-min Rain = 0
KSC1 150212Z 26003KT 02/M02 A3042 RMK A01 T00161021  RH  077%=      5-min Rain = 0
KSC1 150213Z 26003KT 02/M02 A3042 RMK A01 T00161021  RH  076%=      5-min Rain = 0
KSC1 150214Z 25004KT 02/M02 A3042 RMK A01 T00161022  RH  076%=      5-min Rain = 0
KSC1 150215Z 25004KT 02/M02 A3042 RMK A01 T00161023  RH  076%=      5-min Rain = 0
KSC1 150216Z 25004KT 02/M02 A3042 RMK A01 T00151022  RH  076%=      5-min Rain = 0
KSC1 150217Z 25004KT 02/M02 A3042 RMK A01 T00151023  RH  076%=      5-min Rain = 0
KSC1 150218Z 25004KT 01/M02 A3042 RMK A01 T00141023  RH  076%=      5-min Rain = 0
KSC1 150219Z 25004KT 02/M02 A3042 RMK A01 T00151019  RH  078%=      5-min Rain = 0
KSC1 150220Z 25004KT 02/M02 A3042 RMK A01 T00181018  RH  077%=      5-min Rain = 0
KSC1 150221Z 25004KT 02/M02 A3042 RMK A01 T00201017  RH  077%=      5-min Rain = 0
KSC1 150222Z 26004KT 02/M02 A3042 RMK A01 T00211018  RH  075%=      5-min Rain = 0
KSC1 150223Z 26004KT 02/M02 A3042 RMK A01 T00211018  RH  075%=      5-min Rain = 0
KSC1 150224Z 26004KT 02/M02 A3042 RMK A01 T00211018  RH  075%=      5-min Rain = 0
KSC1 150225Z 26004KT 02/M02 A3042 RMK A01 T00221018  RH  075%=      5-min Rain = 0
KSC1 150226Z 26004KT 02/M02 A3042 RMK A01 T00211019  RH  075%=      5-min Rain = 0
KSC1 150227Z 26004KT 02/M02 A3043 RMK A01 T00221018  RH  075%=      5-min Rain = 0
KSC1 150228Z 26004KT 02/M02 A3043 RMK A01 T00241016  RH  075%=      5-min Rain = 0
KSC1 150229Z 27003KT 03/M02 A3043 RMK A01 T00251016  RH  074%=      5-min Rain = 0
KSC1 150230Z 27003KT 03/M02 A3043 RMK A01 T00261016  RH  074%=      5-min Rain = 0
KSC1 150231Z 27003KT 03/M02 A3043 RMK A01 T00271015  RH  073%=      5-min Rain = 0
KSC1 150232Z 27003KT 03/M02 A3043 RMK A01 T00281016  RH  073%=      5-min Rain = 0
KSC1 150233Z 27003KT 03/M02 A3043 RMK A01 T00281016  RH  073%=      5-min Rain = 0
KSC1 150234Z 27003KT 03/M02 A3043 RMK A01 T00271019  RH  072%=      5-min Rain = 0
KSC1 150235Z 27003KT 02/M02 A3043 RMK A01 T00221023  RH  072%=      5-min Rain = 0
KSC1 150236Z 27003KT 02/M03 A3043 RMK A01 T00181026  RH  073%=      5-min Rain = 0
KSC1 150237Z 27003KT 02/M03 A3043 RMK A01 T00151025  RH  075%=      5-min Rain = 0
KSC1 150238Z 27003KT 02/M02 A3043 RMK A01 T00151021  RH  077%=      5-min Rain = 0
KSC1 150239Z 27003KT 02/M02 A3043 RMK A01 T00161021  RH  077%=      5-min Rain = 0
KSC1 150240Z 27003KT 02/M02 A3043 RMK A01 T00161021  RH  077%=      5-min Rain = 0
KSC1 150241Z 26003KT 02/M02 A3043 RMK A01 T00161021  RH  076%=      5-min Rain = 0
KSC1 150242Z 26003KT 02/M02 A3043 RMK A01 T00151022  RH  076%=      5-min Rain = 0
KSC1 150243Z 27003KT 02/M02 A3043 RMK A01 T00151023  RH  076%=      5-min Rain = 0
KSC1 150244Z 26003KT 01/M03 A3043 RMK A01 T00131025  RH  076%=      5-min Rain = 0
KSC1 150245Z 26003KT 01/M02 A3043 RMK A01 T00121024  RH  077%=      5-min Rain = 0
KSC1 150246Z 26003KT 01/M02 A3043 RMK A01 T00121023  RH  078%=      5-min Rain = 0
KSC1 150247Z 26003KT 01/M02 A3043 RMK A01 T00121022  RH  078%=      5-min Rain = 0
KSC1 150248Z 27002KT 01/M02 A3043 RMK A01 T00121023  RH  078%=      5-min Rain = 0
KSC1 150249Z 26003KT 01/M03 A3043 RMK A01 T00101026  RH  077%=      5-min Rain = 0
KSC1 150250Z 27002KT 01/M03 A3043 RMK A01 T00071029  RH  077%=      5-min Rain = 0
KSC1 150251Z 27002KT 01/M03 A3043 RMK A01 T00051028  RH  079%=      5-min Rain = 0
KSC1 150252Z 27002KT 01/M03 A3043 RMK A01 T00051025  RH  080%=      5-min Rain = 0
KSC1 150253Z 27002KT 01/M02 A3043 RMK A01 T00051024  RH  081%=      5-min Rain = 0
KSC1 150254Z 27002KT 01/M02 A3043 RMK A01 T00071022  RH  081%=      5-min Rain = 0
KSC1 150255Z 26002KT 01/M02 A3043 RMK A01 T00091019  RH  082%=      5-min Rain = 0
KSC1 150256Z 27002KT 01/M02 A3043 RMK A01 T00111018  RH  081%=      5-min Rain = 0
KSC1 150257Z 27003KT 01/M02 A3043 RMK A01 T00121018  RH  080%=      5-min Rain = 0
KSC1 150258Z 26003KT 01/M02 A3043 RMK A01 T00131020  RH  079%=      5-min Rain = 0
KSC1 150259Z 26003KT 01/M02 A3044 RMK A01 T00121021  RH  079%=      5-min Rain = 0
KSC1 150300Z 26004KT 01/M02 A3044 RMK A01 T00111022  RH  078%=      5-min Rain = 0
KSC1 150301Z 25004KT 01/M02 A3044 RMK A01 T00101024  RH  078%=      5-min Rain = 0
KSC1 150302Z 25004KT 01/M03 A3044 RMK A01 T00071025  RH  079%=      5-min Rain = 0
KSC1 150303Z 25004KT 01/M03 A3044 RMK A01 T00051025  RH  080%=      5-min Rain = 0
KSC1 150304Z 24005KT 00/M03 A3044 RMK A01 T00041025  RH  081%=      5-min Rain = 0
KSC1 150305Z 24005KT 00/M02 A3044 RMK A01 T00041023  RH  082%=      5-min Rain = 0
KSC1 150306Z 24005KT 01/M02 A3044 RMK A01 T00071017  RH  084%=      5-min Rain = 0
KSC1 150307Z 23005KT 01/M02 A3044 RMK A01 T00091018  RH  082%=      5-min Rain = 0
KSC1 150308Z 23005KT 01/M02 A3044 RMK A01 T00121016  RH  082%=      5-min Rain = 0
KSC1 150309Z 23005KT 01/M02 A3044 RMK A01 T00141017  RH  080%=      5-min Rain = 0
KSC1 150310Z 24005KT 02/M02 A3044 RMK A01 T00151016  RH  080%=      5-min Rain = 0
KSC1 150311Z 24005KT 02/M02 A3044 RMK A01 T00161017  RH  078%=      5-min Rain = 0
KSC1 150312Z 25005KT 02/M02 A3044 RMK A01 T00161018  RH  078%=      5-min Rain = 0
KSC1 150313Z 26004KT 02/M02 A3044 RMK A01 T00161017  RH  079%=      5-min Rain = 0
KSC1 150314Z 26004KT 02/M02 A3044 RMK A01 T00181015  RH  079%=      5-min Rain = 0
KSC1 150315Z 26005KT 02/M02 A3044 RMK A01 T00191015  RH  078%=      5-min Rain = 0
KSC1 150316Z 26005KT 02/M02 A3044 RMK A01 T00201016  RH  077%=      5-min Rain = 0
KSC1 150317Z 26005KT 02/M02 A3044 RMK A01 T00211015  RH  077%=      5-min Rain = 0
KSC1 150318Z 26004KT 02/M02 A3044 RMK A01 T00211016  RH  076%=      5-min Rain = 0
KSC1 150319Z 26004KT 02/M02 A3044 RMK A01 T00201016  RH  077%=      5-min Rain = 0
KSC1 150320Z 26005KT 02/M02 A3044 RMK A01 T00201016  RH  077%=      5-min Rain = 0
KSC1 150321Z 26004KT 02/M02 A3044 RMK A01 T00201016  RH  077%=      5-min Rain = 0
KSC1 150322Z 26004KT 02/M02 A3044 RMK A01 T00211017  RH  076%=      5-min Rain = 0
KSC1 150323Z 27004KT 02/M02 A3044 RMK A01 T00191019  RH  076%=      5-min Rain = 0
KSC1 150324Z 27004KT 02/M02 A3044 RMK A01 T00171021  RH  076%=      5-min Rain = 0
KSC1 150325Z 27004KT 02/M02 A3044 RMK A01 T00161020  RH  077%=      5-min Rain = 0
KSC1 150326Z 27004KT 02/M02 A3044 RMK A01 T00151020  RH  078%=      5-min Rain = 0
KSC1 150327Z 27004KT 01/M02 A3044 RMK A01 T00141020  RH  078%=      5-min Rain = 0
KSC1 150328Z 27004KT 01/M02 A3044 RMK A01 T00131022  RH  078%=      5-min Rain = 0
KSC1 150329Z 27004KT 01/M02 A3044 RMK A01 T00111022  RH  079%=      5-min Rain = 0
KSC1 150330Z 27004KT 01/M02 A3044 RMK A01 T00111020  RH  080%=      5-min Rain = 0
KSC1 150331Z 27004KT 01/M02 A3044 RMK A01 T00131018  RH  080%=      5-min Rain = 0
KSC1 150332Z 26004KT 01/M02 A3044 RMK A01 T00141019  RH  079%=      5-min Rain = 0
KSC1 150333Z 27004KT 01/M02 A3044 RMK A01 T00141019  RH  078%=      5-min Rain = 0
KSC1 150334Z 27004KT 01/M02 A3044 RMK A01 T00141020  RH  078%=      5-min Rain = 0
KSC1 150335Z 28004KT 01/M02 A3044 RMK A01 T00141019  RH  078%=      5-min Rain = 0
KSC1 150336Z 28004KT 01/M02 A3044 RMK A01 T00141020  RH  078%=      5-min Rain = 0
KSC1 150337Z 28004KT 01/M02 A3044 RMK A01 T00131022  RH  078%=      5-min Rain = 0
KSC1 150338Z 28004KT 01/M02 A3044 RMK A01 T00111023  RH  078%=      5-min Rain = 0
KSC1 150339Z 28004KT 01/M02 A3044 RMK A01 T00101022  RH  080%=      5-min Rain = 0
KSC1 150340Z 28004KT 01/M02 A3044 RMK A01 T00091023  RH  079%=      5-min Rain = 0
KSC1 150341Z 28004KT 01/M02 A3044 RMK A01 T00071023  RH  080%=      5-min Rain = 0
KSC1 150342Z 28004KT 01/M02 A3045 RMK A01 T00061023  RH  081%=      5-min Rain = 0
KSC1 150343Z 28004KT 00/M03 A3045 RMK A01 T00041025  RH  081%=      5-min Rain = 0
KSC1 150344Z 27003KT 00/M03 A3045 RMK A01 T00031025  RH  082%=      5-min Rain = 0
KSC1 150345Z 27003KT 00/M03 A3044 RMK A01 T00011027  RH  081%=      5-min Rain = 0
KSC1 150346Z 26003KT M00/M03 A3044 RMK A01 T10011028  RH  082%=      5-min Rain = 0
KSC1 150347Z 25003KT M00/M03 A3045 RMK A01 T10031030  RH  082%=      5-min Rain = 0
KSC1 150348Z 24004KT M00/M03 A3045 RMK A01 T10041031  RH  082%=      5-min Rain = 0
KSC1 150349Z 24003KT M01/M03 A3045 RMK A01 T10061030  RH  084%=      5-min Rain = 0
KSC1 150350Z 24003KT M01/M03 A3045 RMK A01 T10061028  RH  085%=      5-min Rain = 0
KSC1 150351Z 24003KT M01/M03 A3045 RMK A01 T10061029  RH  085%=      5-min Rain = 0
KSC1 150352Z 24003KT M01/M03 A3045 RMK A01 T10081031  RH  084%=      5-min Rain = 0
KSC1 150353Z 24003KT M01/M03 A3045 RMK A01 T10101033  RH  084%=      5-min Rain = 0
KSC1 150354Z 24003KT M01/M03 A3045 RMK A01 T10111032  RH  085%=      5-min Rain = 0
KSC1 150355Z 25003KT M01/M03 A3045 RMK A01 T10121031  RH  086%=      5-min Rain = 0
KSC1 150356Z 25003KT M01/M03 A3045 RMK A01 T10121030  RH  088%=      5-min Rain = 0
KSC1 150357Z 25003KT M01/M03 A3045 RMK A01 T10131028  RH  089%=      5-min Rain = 0
KSC1 150358Z 25003KT M01/M03 A3045 RMK A01 T10131026  RH  091%=      5-min Rain = 0
KSC1 150359Z 25003KT M01/M03 A3044 RMK A01 T10131025  RH  091%=      5-min Rain = 0
KSC1 150400Z 25002KT M01/M03 A3045 RMK A01 T10131025  RH  092%=      5-min Rain = 0
KSC1 150401Z 25002KT M01/M02 A3045 RMK A01 T10131023  RH  093%=      5-min Rain = 0
KSC1 150402Z 25002KT M01/M02 A3045 RMK A01 T10121021  RH  094%=      5-min Rain = 0
KSC1 150403Z 25002KT M01/M02 A3045 RMK A01 T10121020  RH  094%=      5-min Rain = 0
KSC1 150404Z 25002KT M01/M02 A3044 RMK A01 T10111021  RH  093%=      5-min Rain = 0
KSC1 150405Z 28002KT M01/M02 A3044 RMK A01 T10111022  RH  092%=      5-min Rain = 0
KSC1 150406Z 27002KT M01/M02 A3045 RMK A01 T10111023  RH  092%=      5-min Rain = 0
KSC1 150407Z 28002KT M01/M03 A3045 RMK A01 T10121025  RH  091%=      5-min Rain = 0
KSC1 150408Z 28002KT M01/M02 A3045 RMK A01 T10121024  RH  092%=      5-min Rain = 0
KSC1 150409Z 29003KT M01/M02 A3045 RMK A01 T10121023  RH  093%=      5-min Rain = 0
KSC1 150410Z 30003KT M01/M02 A3045 RMK A01 T10121023  RH  092%=      5-min Rain = 0
KSC1 150411Z 30002KT M01/M03 A3045 RMK A01 T10131026  RH  091%=      5-min Rain = 0
KSC1 150412Z 30002KT M02/M03 A3045 RMK A01 T10151028  RH  090%=      5-min Rain = 0
KSC1 150413Z 30002KT M02/M03 A3045 RMK A01 T10161029  RH  091%=      5-min Rain = 0
KSC1 150414Z 30001KT M02/M03 A3045 RMK A01 T10151028  RH  091%=      5-min Rain = 0
KSC1 150415Z 30001KT M02/M03 A3045 RMK A01 T10161028  RH  092%=      5-min Rain = 0
KSC1 150416Z 30001KT M02/M03 A3045 RMK A01 T10161028  RH  092%=      5-min Rain = 0
KSC1 150417Z 30001KT M02/M03 A3045 RMK A01 T10171028  RH  092%=      5-min Rain = 0
KSC1 150418Z 30001KT M02/M03 A3045 RMK A01 T10171028  RH  092%=      5-min Rain = 0
KSC1 150419Z 30000KT M02/M03 A3045 RMK A01 T10171028  RH  092%=      5-min Rain = 0
KSC1 150420Z 30000KT M02/M03 A3045 RMK A01 T10171027  RH  093%=      5-min Rain = 0
KSC1 150421Z 30000KT M02/M03 A3045 RMK A01 T10171027  RH  093%=      5-min Rain = 0
KSC1 150422Z 00000KT M02/M03 A3045 RMK A01 T10171026  RH  094%=      5-min Rain = 0
KSC1 150423Z 00000KT M02/M03 A3045 RMK A01 T10171026  RH  094%=      5-min Rain = 0
KSC1 150424Z 00000KT M02/M03 A3045 RMK A01 T10171026  RH  094%=      5-min Rain = 0
KSC1 150425Z 00000KT M02/M03 A3045 RMK A01 T10181026  RH  094%=      5-min Rain = 0
KSC1 150426Z 00000KT M02/M03 A3045 RMK A01 T10181026  RH  094%=      5-min Rain = 0
KSC1 150427Z 30000KT M02/M03 A3045 RMK A01 T10181025  RH  095%=      5-min Rain = 0
KSC1 150428Z 30001KT M02/M03 A3045 RMK A01 T10181025  RH  095%=      5-min Rain = 0
KSC1 150429Z 30000KT M02/M02 A3045 RMK A01 T10181024  RH  095%=      5-min Rain = 0
KSC1 150430Z 00000KT M02/M02 A3045 RMK A01 T10171024  RH  095%=      5-min Rain = 0
KSC1 150431Z 00000KT M02/M02 A3045 RMK A01 T10171024  RH  095%=      5-min Rain = 0
KSC1 150432Z 30000KT M02/M02 A3045 RMK A01 T10171023  RH  095%=      5-min Rain = 0
KSC1 150433Z 30000KT M02/M02 A3045 RMK A01 T10151021  RH  096%=      5-min Rain = 0
KSC1 150434Z 30001KT M02/M02 A3045 RMK A01 T10151021  RH  096%=      5-min Rain = 0
KSC1 150435Z 30000KT M01/M02 A3045 RMK A01 T10141021  RH  095%=      5-min Rain = 0
KSC1 150436Z 00000KT M01/M02 A3045 RMK A01 T10131020  RH  095%=      5-min Rain = 0
KSC1 150437Z 00000KT M01/M02 A3045 RMK A01 T10141023  RH  094%=      5-min Rain = 0
KSC1 150438Z 00000KT M02/M03 A3045 RMK A01 T10161027  RH  092%=      5-min Rain = 0
KSC1 150439Z 00000KT M02/M03 A3045 RMK A01 T10171030  RH  091%=      5-min Rain = 0
KSC1 150440Z 00000KT M02/M03 A3045 RMK A01 T10181031  RH  091%=      5-min Rain = 0
KSC1 150441Z 30000KT M02/M03 A3045 RMK A01 T10191032  RH  091%=      5-min Rain = 0
KSC1 150442Z 30000KT M02/M03 A3045 RMK A01 T10201031  RH  092%=      5-min Rain = 0
KSC1 150443Z 30000KT M02/M03 A3045 RMK A01 T10201029  RH  094%=      5-min Rain = 0
KSC1 150444Z 30000KT M02/M03 A3045 RMK A01 T10201028  RH  094%=      5-min Rain = 0
KSC1 150445Z 30000KT M02/M03 A3045 RMK A01 T10201027  RH  095%=      5-min Rain = 0
KSC1 150446Z 00000KT M02/M02 A3045 RMK A01 T10191024  RH  096%=      5-min Rain = 0
KSC1 150447Z 00000KT M02/M02 A3045 RMK A01 T10181024  RH  096%=      5-min Rain = 0
KSC1 150448Z 00000KT M02/M03 A3045 RMK A01 T10181025  RH  095%=      5-min Rain = 0
KSC1 150449Z 00000KT M02/M03 A3045 RMK A01 T10191027  RH  094%=      5-min Rain = 0
KSC1 150450Z 00000KT M02/M03 A3045 RMK A01 T10211031  RH  093%=      5-min Rain = 0
KSC1 150451Z 00000KT M02/M03 A3045 RMK A01 T10231034  RH  093%=      5-min Rain = 0
KSC1 150452Z 00000KT M03/M04 A3045 RMK A01 T10251035  RH  093%=      5-min Rain = 0
KSC1 150453Z 00000KT M03/M03 A3045 RMK A01 T10251034  RH  094%=      5-min Rain = 0
KSC1 150454Z 00000KT M03/M03 A3045 RMK A01 T10261033  RH  095%=      5-min Rain = 0
KSC1 150455Z 00000KT M03/M03 A3045 RMK A01 T10261032  RH  096%=      5-min Rain = 0
KSC1 150456Z 30000KT M03/M03 A3045 RMK A01 T10261032  RH  096%=      5-min Rain = 0
KSC1 150457Z 30000KT M03/M03 A3045 RMK A01 T10271032  RH  096%=      5-min Rain = 0
KSC1 150458Z 30000KT M03/M03 A3045 RMK A01 T10271032  RH  097%=      5-min Rain = 0
KSC1 150459Z 30000KT M03/M03 A3045 RMK A01 T10271032  RH  097%=      5-min Rain = 0
KSC1 150500Z 00000KT M03/M03 A3045 RMK A01 T10271031  RH  097%=      5-min Rain = 0
KSC1 150501Z 00000KT M03/M03 A3045 RMK A01 T10271031  RH  097%=      5-min Rain = 0
KSC1 150502Z 00000KT M03/M03 A3045 RMK A01 T10281031  RH  098%=      5-min Rain = 0
KSC1 150503Z 00000KT M03/M03 A3045 RMK A01 T10281030  RH  098%=      5-min Rain = 0
KSC1 150504Z 00000KT M03/M03 A3045 RMK A01 T10281029  RH  099%=      5-min Rain = 0
KSC1 150505Z 00000KT M03/M03 A3045 RMK A01 T10271029  RH  099%=      5-min Rain = 0
KSC1 150506Z 00000KT M03/M03 A3045 RMK A01 T10271029  RH  099%=      5-min Rain = 0
KSC1 150507Z 00000KT M03/M03 A3045 RMK A01 T10271028  RH  099%=      5-min Rain = 0
KSC1 150508Z 00000KT M03/M03 A3045 RMK A01 T10281028  RH  099%=      5-min Rain = 0
KSC1 150509Z 00000KT M03/M03 A3045 RMK A01 T10271027  RH  100%=      5-min Rain = 0
KSC1 150510Z 00000KT M03/M03 A3045 RMK A01 T10261026  RH  100%=      5-min Rain = 0
KSC1 150511Z 00000KT M03/M03 A3045 RMK A01 T10261027  RH  099%=      5-min Rain = 0
KSC1 150512Z 00000KT M03/M03 A3045 RMK A01 T10261028  RH  099%=      5-min Rain = 0
KSC1 150513Z 00000KT M03/M03 A3045 RMK A01 T10271030  RH  098%=      5-min Rain = 0
KSC1 150514Z 00000KT M03/M03 A3045 RMK A01 T10271030  RH  098%=      5-min Rain = 0
KSC1 150515Z 00000KT M03/M03 A3045 RMK A01 T10281031  RH  098%=      5-min Rain = 0
KSC1 150516Z 00000KT M03/M03 A3045 RMK A01 T10281031  RH  098%=      5-min Rain = 0
KSC1 150517Z 00000KT M03/M03 A3045 RMK A01 T10281031  RH  098%=      5-min Rain = 0
KSC1 150518Z 00000KT M03/M03 A3045 RMK A01 T10291031  RH  098%=      5-min Rain = 0
KSC1 150519Z 00000KT M03/M03 A3045 RMK A01 T10291031  RH  099%=      5-min Rain = 0
KSC1 150520Z 00000KT M03/M03 A3045 RMK A01 T10291030  RH  099%=      5-min Rain = 0
KSC1 150521Z 00000KT M03/M03 A3045 RMK A01 T10291030  RH  099%=      5-min Rain = 0
KSC1 150522Z 00000KT M03/M03 A3045 RMK A01 T10291030  RH  099%=      5-min Rain = 0
KSC1 150523Z 30000KT M03/M03 A3045 RMK A01 T10281030  RH  099%=      5-min Rain = 0
KSC1 150524Z 30000KT M03/M03 A3045 RMK A01 T10281029  RH  099%=      5-min Rain = 0
KSC1 150525Z 30000KT M03/M03 A3045 RMK A01 T10291029  RH  100%=      5-min Rain = 0
KSC1 150526Z 30000KT M03/M03 A3045 RMK A01 T10291029  RH  100%=      5-min Rain = 0
KSC1 150527Z 30000KT M03/M03 A3045 RMK A01 T10291029  RH  099%=      5-min Rain = 0
KSC1 150528Z 30000KT M03/M03 A3045 RMK A01 T10291029  RH  100%=      5-min Rain = 0
KSC1 150529Z 00000KT M03/M03 A3045 RMK A01 T10281028  RH  100%=      5-min Rain = 0
KSC1 150530Z 00000KT M03/M03 A3045 RMK A01 T10281028  RH  100%=      5-min Rain = 0
KSC1 150531Z 00000KT M03/M03 A3045 RMK A01 T10281029  RH  100%=      5-min Rain = 0
KSC1 150532Z 00000KT M03/M03 A3045 RMK A01 T10291030  RH  099%=      5-min Rain = 0
KSC1 150533Z 00000KT M03/M03 A3045 RMK A01 T10291030  RH  099%=      5-min Rain = 0
KSC1 150534Z 00000KT M03/M03 A3045 RMK A01 T10291030  RH  099%=      5-min Rain = 0
KSC1 150535Z 00000KT M03/M03 A3045 RMK A01 T10291029  RH  100%=      5-min Rain = 0
KSC1 150536Z 00000KT M03/M03 A3045 RMK A01 T10281029  RH  100%=      5-min Rain = 0
KSC1 150537Z 00000KT M03/M03 A3045 RMK A01 T10281029  RH  100%=      5-min Rain = 0
KSC1 150538Z 30000KT M03/M03 A3045 RMK A01 T10281029  RH  100%=      5-min Rain = 0
KSC1 150539Z 30000KT M03/M03 A3045 RMK A01 T10281029  RH  099%=      5-min Rain = 0
KSC1 150540Z 25002KT M03/M03 A3045 RMK A01 T10291030  RH  099%=      5-min Rain = 0
KSC1 150541Z 24002KT M03/M03 A3045 RMK A01 T10291030  RH  099%=      5-min Rain = 0
KSC1 150542Z 24002KT M03/M03 A3045 RMK A01 T10281028  RH  100%=      5-min Rain = 0
KSC1 150543Z 24002KT M03/M03 A3045 RMK A01 T10271028  RH  100%=      5-min Rain = 0
KSC1 150544Z 24002KT M03/M03 A3045 RMK A01 T10281028  RH  100%=      5-min Rain = 0
KSC1 150545Z 24002KT M03/M03 A3045 RMK A01 T10271028  RH  100%=      5-min Rain = 0
KSC1 150546Z 23002KT M03/M03 A3045 RMK A01 T10281029  RH  099%=      5-min Rain = 0
KSC1 150547Z 23002KT M03/M03 A3045 RMK A01 T10281030  RH  099%=      5-min Rain = 0
KSC1 150548Z 23002KT M03/M03 A3045 RMK A01 T10281030  RH  099%=      5-min Rain = 0
KSC1 150549Z 23002KT M03/M03 A3045 RMK A01 T10291030  RH  099%=      5-min Rain = 0
KSC1 150550Z 23002KT M03/M03 A3045 RMK A01 T10291030  RH  099%=      5-min Rain = 0
KSC1 150551Z 23002KT M03/M03 A3045 RMK A01 T10291030  RH  099%=      5-min Rain = 0
KSC1 150552Z 24002KT M03/M03 A3045 RMK A01 T10291030  RH  099%=      5-min Rain = 0
KSC1 150553Z 24001KT M03/M03 A3045 RMK A01 T10291030  RH  099%=      5-min Rain = 0
KSC1 150554Z 24001KT M03/M03 A3045 RMK A01 T10291030  RH  100%=      5-min Rain = 0
KSC1 150555Z 24001KT M03/M03 A3045 RMK A01 T10291029  RH  100%=      5-min Rain = 0
KSC1 150556Z 24002KT M03/M03 A3045 RMK A01 T10291029  RH  100%=      5-min Rain = 0
KSC1 150557Z 24002KT M03/M03 A3045 RMK A01 T10291029  RH  100%=      5-min Rain = 0
KSC1 150558Z 24002KT M03/M03 A3045 RMK A01 T10291029  RH  100%=      5-min Rain = 0
KSC1 150559Z 24002KT M03/M03 A3045 RMK A01 T10291029  RH  100%=      5-min Rain = 0

Page generated in 0.1214 seconds.